<?xml version="1.0" encoding="UTF-8" standalone="no" ?>
<gpx xmlns="http://www.topografix.com/GPX/1/1" xmlns:xsi="http://www.w3.org/2001/XMLSchema-instance" xsi:schemaLocation="http://www.topografix.com/GPX/1/1 http://www.topografix.com/GPX/1/1/gpx.xsd" version="1.1" creator="VisuGPX - https://www.visugpx.com">
  <metadata>
    <name>rando autour de moirax</name>
    <desc><![CDATA[bon circuit de 22.8 km avec pas mal de montés et de descentes , ]]></desc>
  </metadata>
  <trk>
    <name><![CDATA[moirax 3 01 2015]]></name>
    <trkseg>
      <trkpt lat="44.14165" lon="0.6094">
        <ele>156.35</ele>
        <time>2015-01-03T08:00:05Z</time>
      </trkpt>
      <trkpt lat="44.14165" lon="0.60938">
        <ele>156.83</ele>
        <time>2015-01-03T08:00:18Z</time>
      </trkpt>
      <trkpt lat="44.14167" lon="0.60937">
        <ele>157.31</ele>
        <time>2015-01-03T08:00:27Z</time>
      </trkpt>
      <trkpt lat="44.14165" lon="0.60938">
        <ele>158.27</ele>
        <time>2015-01-03T08:00:35Z</time>
      </trkpt>
      <trkpt lat="44.14162" lon="0.60939">
        <ele>159.72</ele>
        <time>2015-01-03T08:00:53Z</time>
      </trkpt>
      <trkpt lat="44.14158" lon="0.60936">
        <ele>157.79</ele>
        <time>2015-01-03T08:01:09Z</time>
      </trkpt>
      <trkpt lat="44.14153" lon="0.60935">
        <ele>157.31</ele>
        <time>2015-01-03T08:01:24Z</time>
      </trkpt>
      <trkpt lat="44.14144" lon="0.60925">
        <ele>154.43</ele>
        <time>2015-01-03T08:01:40Z</time>
      </trkpt>
      <trkpt lat="44.14143" lon="0.6091">
        <ele>153.95</ele>
        <time>2015-01-03T08:01:51Z</time>
      </trkpt>
      <trkpt lat="44.14143" lon="0.60906">
        <ele>154.43</ele>
        <time>2015-01-03T08:01:54Z</time>
      </trkpt>
      <trkpt lat="44.14149" lon="0.60904">
        <ele>154.43</ele>
        <time>2015-01-03T08:01:59Z</time>
      </trkpt>
      <trkpt lat="44.14167" lon="0.6091">
        <ele>155.39</ele>
        <time>2015-01-03T08:02:15Z</time>
      </trkpt>
      <trkpt lat="44.14183" lon="0.60917">
        <ele>152.03</ele>
        <time>2015-01-03T08:02:32Z</time>
      </trkpt>
      <trkpt lat="44.14205" lon="0.60921">
        <ele>152.51</ele>
        <time>2015-01-03T08:02:50Z</time>
      </trkpt>
      <trkpt lat="44.14227" lon="0.60929">
        <ele>151.06</ele>
        <time>2015-01-03T08:03:10Z</time>
      </trkpt>
      <trkpt lat="44.14252" lon="0.60934">
        <ele>150.58</ele>
        <time>2015-01-03T08:03:30Z</time>
      </trkpt>
      <trkpt lat="44.14283" lon="0.60939">
        <ele>149.14</ele>
        <time>2015-01-03T08:03:52Z</time>
      </trkpt>
      <trkpt lat="44.14309" lon="0.6094">
        <ele>148.18</ele>
        <time>2015-01-03T08:04:13Z</time>
      </trkpt>
      <trkpt lat="44.14333" lon="0.60936">
        <ele>146.26</ele>
        <time>2015-01-03T08:04:32Z</time>
      </trkpt>
      <trkpt lat="44.14337" lon="0.60935">
        <ele>145.78</ele>
        <time>2015-01-03T08:04:35Z</time>
      </trkpt>
      <trkpt lat="44.14344" lon="0.60932">
        <ele>144.34</ele>
        <time>2015-01-03T08:04:41Z</time>
      </trkpt>
      <trkpt lat="44.14348" lon="0.60927">
        <ele>142.89</ele>
        <time>2015-01-03T08:04:46Z</time>
      </trkpt>
      <trkpt lat="44.14343" lon="0.60919">
        <ele>140.97</ele>
        <time>2015-01-03T08:04:53Z</time>
      </trkpt>
      <trkpt lat="44.14327" lon="0.60888">
        <ele>137.13</ele>
        <time>2015-01-03T08:05:15Z</time>
      </trkpt>
      <trkpt lat="44.14322" lon="0.60855">
        <ele>133.28</ele>
        <time>2015-01-03T08:05:34Z</time>
      </trkpt>
      <trkpt lat="44.14311" lon="0.60814">
        <ele>128.47</ele>
        <time>2015-01-03T08:05:58Z</time>
      </trkpt>
      <trkpt lat="44.14311" lon="0.60786">
        <ele>123.67</ele>
        <time>2015-01-03T08:06:16Z</time>
      </trkpt>
      <trkpt lat="44.14318" lon="0.60752">
        <ele>118.38</ele>
        <time>2015-01-03T08:06:37Z</time>
      </trkpt>
      <trkpt lat="44.14325" lon="0.60723">
        <ele>111.17</ele>
        <time>2015-01-03T08:06:56Z</time>
      </trkpt>
      <trkpt lat="44.14332" lon="0.60694">
        <ele>108.77</ele>
        <time>2015-01-03T08:07:14Z</time>
      </trkpt>
      <trkpt lat="44.14335" lon="0.60663">
        <ele>104.92</ele>
        <time>2015-01-03T08:07:33Z</time>
      </trkpt>
      <trkpt lat="44.14343" lon="0.60637">
        <ele>102.52</ele>
        <time>2015-01-03T08:07:50Z</time>
      </trkpt>
      <trkpt lat="44.14351" lon="0.60611">
        <ele>93.87</ele>
        <time>2015-01-03T08:08:07Z</time>
      </trkpt>
      <trkpt lat="44.14356" lon="0.60598">
        <ele>88.58</ele>
        <time>2015-01-03T08:08:16Z</time>
      </trkpt>
      <trkpt lat="44.14365" lon="0.60573">
        <ele>82.33</ele>
        <time>2015-01-03T08:08:34Z</time>
      </trkpt>
      <trkpt lat="44.14374" lon="0.60548">
        <ele>79.93</ele>
        <time>2015-01-03T08:08:50Z</time>
      </trkpt>
      <trkpt lat="44.14383" lon="0.60518">
        <ele>79.93</ele>
        <time>2015-01-03T08:09:07Z</time>
      </trkpt>
      <trkpt lat="44.14384" lon="0.60512">
        <ele>79.93</ele>
        <time>2015-01-03T08:09:11Z</time>
      </trkpt>
      <trkpt lat="44.1439" lon="0.60498">
        <ele>79.93</ele>
        <time>2015-01-03T08:09:20Z</time>
      </trkpt>
      <trkpt lat="44.14394" lon="0.60488">
        <ele>78.48</ele>
        <time>2015-01-03T08:09:27Z</time>
      </trkpt>
      <trkpt lat="44.14408" lon="0.60465">
        <ele>72.72</ele>
        <time>2015-01-03T08:09:46Z</time>
      </trkpt>
      <trkpt lat="44.14423" lon="0.60446">
        <ele>72.72</ele>
        <time>2015-01-03T08:10:03Z</time>
      </trkpt>
      <trkpt lat="44.14437" lon="0.60437">
        <ele>70.79</ele>
        <time>2015-01-03T08:10:16Z</time>
      </trkpt>
      <trkpt lat="44.14455" lon="0.60424">
        <ele>64.07</ele>
        <time>2015-01-03T08:10:33Z</time>
      </trkpt>
      <trkpt lat="44.14464" lon="0.60415">
        <ele>61.18</ele>
        <time>2015-01-03T08:10:44Z</time>
      </trkpt>
      <trkpt lat="44.14477" lon="0.60393">
        <ele>58.78</ele>
        <time>2015-01-03T08:10:59Z</time>
      </trkpt>
      <trkpt lat="44.14478" lon="0.60388">
        <ele>58.3</ele>
        <time>2015-01-03T08:11:01Z</time>
      </trkpt>
      <trkpt lat="44.14487" lon="0.60368">
        <ele>57.82</ele>
        <time>2015-01-03T08:11:16Z</time>
      </trkpt>
      <trkpt lat="44.14503" lon="0.60347">
        <ele>66.47</ele>
        <time>2015-01-03T08:11:30Z</time>
      </trkpt>
      <trkpt lat="44.1451" lon="0.60341">
        <ele>65.51</ele>
        <time>2015-01-03T08:11:37Z</time>
      </trkpt>
      <trkpt lat="44.1453" lon="0.60321">
        <ele>67.43</ele>
        <time>2015-01-03T08:11:56Z</time>
      </trkpt>
      <trkpt lat="44.14543" lon="0.60298">
        <ele>68.39</ele>
        <time>2015-01-03T08:12:16Z</time>
      </trkpt>
      <trkpt lat="44.14547" lon="0.60291">
        <ele>69.35</ele>
        <time>2015-01-03T08:12:23Z</time>
      </trkpt>
      <trkpt lat="44.14559" lon="0.60272">
        <ele>71.76</ele>
        <time>2015-01-03T08:12:40Z</time>
      </trkpt>
      <trkpt lat="44.14569" lon="0.60252">
        <ele>74.16</ele>
        <time>2015-01-03T08:12:54Z</time>
      </trkpt>
      <trkpt lat="44.14581" lon="0.60226">
        <ele>74.64</ele>
        <time>2015-01-03T08:13:12Z</time>
      </trkpt>
      <trkpt lat="44.14598" lon="0.60193">
        <ele>75.12</ele>
        <time>2015-01-03T08:13:34Z</time>
      </trkpt>
      <trkpt lat="44.1461" lon="0.60176">
        <ele>74.64</ele>
        <time>2015-01-03T08:13:49Z</time>
      </trkpt>
      <trkpt lat="44.14628" lon="0.6015">
        <ele>73.2</ele>
        <time>2015-01-03T08:14:09Z</time>
      </trkpt>
      <trkpt lat="44.14638" lon="0.60137">
        <ele>72.72</ele>
        <time>2015-01-03T08:14:20Z</time>
      </trkpt>
      <trkpt lat="44.14651" lon="0.60116">
        <ele>74.64</ele>
        <time>2015-01-03T08:14:37Z</time>
      </trkpt>
      <trkpt lat="44.1466" lon="0.60097">
        <ele>78</ele>
        <time>2015-01-03T08:14:51Z</time>
      </trkpt>
      <trkpt lat="44.14671" lon="0.60076">
        <ele>82.81</ele>
        <time>2015-01-03T08:15:06Z</time>
      </trkpt>
      <trkpt lat="44.14681" lon="0.60059">
        <ele>85.21</ele>
        <time>2015-01-03T08:15:20Z</time>
      </trkpt>
      <trkpt lat="44.1469" lon="0.60043">
        <ele>85.21</ele>
        <time>2015-01-03T08:15:33Z</time>
      </trkpt>
      <trkpt lat="44.14701" lon="0.60022">
        <ele>86.18</ele>
        <time>2015-01-03T08:15:48Z</time>
      </trkpt>
      <trkpt lat="44.14705" lon="0.60015">
        <ele>87.14</ele>
        <time>2015-01-03T08:15:54Z</time>
      </trkpt>
      <trkpt lat="44.14714" lon="0.59995">
        <ele>88.1</ele>
        <time>2015-01-03T08:16:08Z</time>
      </trkpt>
      <trkpt lat="44.14725" lon="0.59971">
        <ele>89.54</ele>
        <time>2015-01-03T08:16:25Z</time>
      </trkpt>
      <trkpt lat="44.14734" lon="0.59947">
        <ele>89.06</ele>
        <time>2015-01-03T08:16:41Z</time>
      </trkpt>
      <trkpt lat="44.1474" lon="0.59921">
        <ele>90.5</ele>
        <time>2015-01-03T08:16:56Z</time>
      </trkpt>
      <trkpt lat="44.14745" lon="0.59898">
        <ele>91.46</ele>
        <time>2015-01-03T08:17:11Z</time>
      </trkpt>
      <trkpt lat="44.14749" lon="0.59873">
        <ele>92.9</ele>
        <time>2015-01-03T08:17:26Z</time>
      </trkpt>
      <trkpt lat="44.14752" lon="0.59848">
        <ele>94.35</ele>
        <time>2015-01-03T08:17:41Z</time>
      </trkpt>
      <trkpt lat="44.14754" lon="0.59818">
        <ele>95.79</ele>
        <time>2015-01-03T08:17:56Z</time>
      </trkpt>
      <trkpt lat="44.14757" lon="0.59789">
        <ele>94.35</ele>
        <time>2015-01-03T08:18:12Z</time>
      </trkpt>
      <trkpt lat="44.14765" lon="0.59763">
        <ele>95.79</ele>
        <time>2015-01-03T08:18:28Z</time>
      </trkpt>
      <trkpt lat="44.14768" lon="0.59738">
        <ele>94.83</ele>
        <time>2015-01-03T08:18:43Z</time>
      </trkpt>
      <trkpt lat="44.14769" lon="0.59709">
        <ele>98.67</ele>
        <time>2015-01-03T08:18:59Z</time>
      </trkpt>
      <trkpt lat="44.14771" lon="0.59687">
        <ele>101.08</ele>
        <time>2015-01-03T08:19:14Z</time>
      </trkpt>
      <trkpt lat="44.14773" lon="0.59665">
        <ele>104.44</ele>
        <time>2015-01-03T08:19:28Z</time>
      </trkpt>
      <trkpt lat="44.14779" lon="0.59642">
        <ele>104.92</ele>
        <time>2015-01-03T08:19:42Z</time>
      </trkpt>
      <trkpt lat="44.1479" lon="0.59624">
        <ele>107.32</ele>
        <time>2015-01-03T08:19:56Z</time>
      </trkpt>
      <trkpt lat="44.14798" lon="0.59616">
        <ele>108.29</ele>
        <time>2015-01-03T08:20:04Z</time>
      </trkpt>
      <trkpt lat="44.1481" lon="0.596">
        <ele>111.65</ele>
        <time>2015-01-03T08:20:22Z</time>
      </trkpt>
      <trkpt lat="44.14815" lon="0.59586">
        <ele>114.53</ele>
        <time>2015-01-03T08:20:34Z</time>
      </trkpt>
      <trkpt lat="44.1482" lon="0.59571">
        <ele>116.94</ele>
        <time>2015-01-03T08:20:47Z</time>
      </trkpt>
      <trkpt lat="44.1483" lon="0.59555">
        <ele>115.98</ele>
        <time>2015-01-03T08:21:02Z</time>
      </trkpt>
      <trkpt lat="44.14839" lon="0.59541">
        <ele>116.94</ele>
        <time>2015-01-03T08:21:16Z</time>
      </trkpt>
      <trkpt lat="44.14844" lon="0.59527">
        <ele>117.42</ele>
        <time>2015-01-03T08:21:28Z</time>
      </trkpt>
      <trkpt lat="44.14846" lon="0.59507">
        <ele>120.3</ele>
        <time>2015-01-03T08:21:43Z</time>
      </trkpt>
      <trkpt lat="44.14845" lon="0.59487">
        <ele>124.63</ele>
        <time>2015-01-03T08:21:56Z</time>
      </trkpt>
      <trkpt lat="44.14846" lon="0.5946">
        <ele>126.55</ele>
        <time>2015-01-03T08:22:13Z</time>
      </trkpt>
      <trkpt lat="44.1485" lon="0.59445">
        <ele>130.4</ele>
        <time>2015-01-03T08:22:24Z</time>
      </trkpt>
      <trkpt lat="44.14855" lon="0.59421">
        <ele>133.76</ele>
        <time>2015-01-03T08:22:41Z</time>
      </trkpt>
      <trkpt lat="44.14858" lon="0.59405">
        <ele>133.28</ele>
        <time>2015-01-03T08:22:53Z</time>
      </trkpt>
      <trkpt lat="44.14863" lon="0.59382">
        <ele>132.8</ele>
        <time>2015-01-03T08:23:08Z</time>
      </trkpt>
      <trkpt lat="44.14869" lon="0.59356">
        <ele>134.72</ele>
        <time>2015-01-03T08:23:24Z</time>
      </trkpt>
      <trkpt lat="44.1488" lon="0.59328">
        <ele>138.09</ele>
        <time>2015-01-03T08:23:41Z</time>
      </trkpt>
      <trkpt lat="44.14892" lon="0.59302">
        <ele>141.45</ele>
        <time>2015-01-03T08:23:57Z</time>
      </trkpt>
      <trkpt lat="44.14907" lon="0.5927">
        <ele>141.45</ele>
        <time>2015-01-03T08:24:17Z</time>
      </trkpt>
      <trkpt lat="44.14923" lon="0.5924">
        <ele>140.49</ele>
        <time>2015-01-03T08:24:37Z</time>
      </trkpt>
      <trkpt lat="44.14934" lon="0.59221">
        <ele>139.05</ele>
        <time>2015-01-03T08:24:50Z</time>
      </trkpt>
      <trkpt lat="44.14938" lon="0.59215">
        <ele>137.61</ele>
        <time>2015-01-03T08:24:55Z</time>
      </trkpt>
      <trkpt lat="44.14955" lon="0.5919">
        <ele>136.64</ele>
        <time>2015-01-03T08:25:13Z</time>
      </trkpt>
      <trkpt lat="44.14972" lon="0.59156">
        <ele>138.09</ele>
        <time>2015-01-03T08:25:35Z</time>
      </trkpt>
      <trkpt lat="44.14987" lon="0.59129">
        <ele>137.61</ele>
        <time>2015-01-03T08:25:56Z</time>
      </trkpt>
      <trkpt lat="44.15002" lon="0.591">
        <ele>136.16</ele>
        <time>2015-01-03T08:26:17Z</time>
      </trkpt>
      <trkpt lat="44.15016" lon="0.59066">
        <ele>135.68</ele>
        <time>2015-01-03T08:26:38Z</time>
      </trkpt>
      <trkpt lat="44.15027" lon="0.59026">
        <ele>134.72</ele>
        <time>2015-01-03T08:27:01Z</time>
      </trkpt>
      <trkpt lat="44.15037" lon="0.58994">
        <ele>134.72</ele>
        <time>2015-01-03T08:27:20Z</time>
      </trkpt>
      <trkpt lat="44.1505" lon="0.58963">
        <ele>133.76</ele>
        <time>2015-01-03T08:27:40Z</time>
      </trkpt>
      <trkpt lat="44.15062" lon="0.58938">
        <ele>136.16</ele>
        <time>2015-01-03T08:27:57Z</time>
      </trkpt>
      <trkpt lat="44.15075" lon="0.58908">
        <ele>137.13</ele>
        <time>2015-01-03T08:28:17Z</time>
      </trkpt>
      <trkpt lat="44.15087" lon="0.58881">
        <ele>136.16</ele>
        <time>2015-01-03T08:28:36Z</time>
      </trkpt>
      <trkpt lat="44.15095" lon="0.58848">
        <ele>136.16</ele>
        <time>2015-01-03T08:28:55Z</time>
      </trkpt>
      <trkpt lat="44.15096" lon="0.58809">
        <ele>136.64</ele>
        <time>2015-01-03T08:29:17Z</time>
      </trkpt>
      <trkpt lat="44.15099" lon="0.58769">
        <ele>138.09</ele>
        <time>2015-01-03T08:29:38Z</time>
      </trkpt>
      <trkpt lat="44.15103" lon="0.58728">
        <ele>139.05</ele>
        <time>2015-01-03T08:30:00Z</time>
      </trkpt>
      <trkpt lat="44.15106" lon="0.58694">
        <ele>136.16</ele>
        <time>2015-01-03T08:30:18Z</time>
      </trkpt>
      <trkpt lat="44.15114" lon="0.58657">
        <ele>136.64</ele>
        <time>2015-01-03T08:30:38Z</time>
      </trkpt>
      <trkpt lat="44.15125" lon="0.58625">
        <ele>138.09</ele>
        <time>2015-01-03T08:30:57Z</time>
      </trkpt>
      <trkpt lat="44.15141" lon="0.58595">
        <ele>137.61</ele>
        <time>2015-01-03T08:31:17Z</time>
      </trkpt>
      <trkpt lat="44.15159" lon="0.58574">
        <ele>136.16</ele>
        <time>2015-01-03T08:31:36Z</time>
      </trkpt>
      <trkpt lat="44.15186" lon="0.58554">
        <ele>135.2</ele>
        <time>2015-01-03T08:31:59Z</time>
      </trkpt>
      <trkpt lat="44.15215" lon="0.58536">
        <ele>136.16</ele>
        <time>2015-01-03T08:32:23Z</time>
      </trkpt>
      <trkpt lat="44.15245" lon="0.58516">
        <ele>138.09</ele>
        <time>2015-01-03T08:32:46Z</time>
      </trkpt>
      <trkpt lat="44.15268" lon="0.58492">
        <ele>139.53</ele>
        <time>2015-01-03T08:33:08Z</time>
      </trkpt>
      <trkpt lat="44.15283" lon="0.58458">
        <ele>139.05</ele>
        <time>2015-01-03T08:33:29Z</time>
      </trkpt>
      <trkpt lat="44.15293" lon="0.58425">
        <ele>134.24</ele>
        <time>2015-01-03T08:33:48Z</time>
      </trkpt>
      <trkpt lat="44.15307" lon="0.584">
        <ele>131.36</ele>
        <time>2015-01-03T08:34:06Z</time>
      </trkpt>
      <trkpt lat="44.15322" lon="0.5837">
        <ele>130.88</ele>
        <time>2015-01-03T08:34:25Z</time>
      </trkpt>
      <trkpt lat="44.15335" lon="0.58348">
        <ele>130.88</ele>
        <time>2015-01-03T08:34:41Z</time>
      </trkpt>
      <trkpt lat="44.15351" lon="0.58317">
        <ele>135.68</ele>
        <time>2015-01-03T08:35:00Z</time>
      </trkpt>
      <trkpt lat="44.15366" lon="0.58291">
        <ele>134.72</ele>
        <time>2015-01-03T08:35:19Z</time>
      </trkpt>
      <trkpt lat="44.15389" lon="0.58261">
        <ele>133.28</ele>
        <time>2015-01-03T08:35:42Z</time>
      </trkpt>
      <trkpt lat="44.15412" lon="0.58231">
        <ele>128.95</ele>
        <time>2015-01-03T08:36:05Z</time>
      </trkpt>
      <trkpt lat="44.15426" lon="0.58208">
        <ele>125.11</ele>
        <time>2015-01-03T08:36:22Z</time>
      </trkpt>
      <trkpt lat="44.15437" lon="0.58189">
        <ele>123.19</ele>
        <time>2015-01-03T08:36:37Z</time>
      </trkpt>
      <trkpt lat="44.15441" lon="0.58184">
        <ele>122.71</ele>
        <time>2015-01-03T08:36:41Z</time>
      </trkpt>
      <trkpt lat="44.15443" lon="0.58181">
        <ele>122.22</ele>
        <time>2015-01-03T08:36:43Z</time>
      </trkpt>
      <trkpt lat="44.1545" lon="0.5817">
        <ele>123.19</ele>
        <time>2015-01-03T08:36:57Z</time>
      </trkpt>
      <trkpt lat="44.15446" lon="0.58165">
        <ele>123.67</ele>
        <time>2015-01-03T08:37:04Z</time>
      </trkpt>
      <trkpt lat="44.1544" lon="0.58161">
        <ele>121.74</ele>
        <time>2015-01-03T08:37:11Z</time>
      </trkpt>
      <trkpt lat="44.15423" lon="0.58153">
        <ele>118.86</ele>
        <time>2015-01-03T08:37:28Z</time>
      </trkpt>
      <trkpt lat="44.15405" lon="0.58145">
        <ele>117.42</ele>
        <time>2015-01-03T08:37:44Z</time>
      </trkpt>
      <trkpt lat="44.15387" lon="0.58132">
        <ele>113.57</ele>
        <time>2015-01-03T08:38:01Z</time>
      </trkpt>
      <trkpt lat="44.15373" lon="0.58121">
        <ele>114.53</ele>
        <time>2015-01-03T08:38:13Z</time>
      </trkpt>
      <trkpt lat="44.15364" lon="0.5811">
        <ele>111.65</ele>
        <time>2015-01-03T08:38:23Z</time>
      </trkpt>
      <trkpt lat="44.15352" lon="0.58096">
        <ele>107.32</ele>
        <time>2015-01-03T08:38:37Z</time>
      </trkpt>
      <trkpt lat="44.15349" lon="0.58094">
        <ele>107.32</ele>
        <time>2015-01-03T08:38:40Z</time>
      </trkpt>
      <trkpt lat="44.15323" lon="0.58092">
        <ele>106.84</ele>
        <time>2015-01-03T08:38:59Z</time>
      </trkpt>
      <trkpt lat="44.15302" lon="0.58091">
        <ele>101.08</ele>
        <time>2015-01-03T08:39:17Z</time>
      </trkpt>
      <trkpt lat="44.15286" lon="0.58089">
        <ele>99.15</ele>
        <time>2015-01-03T08:39:31Z</time>
      </trkpt>
      <trkpt lat="44.1527" lon="0.58076">
        <ele>98.19</ele>
        <time>2015-01-03T08:39:43Z</time>
      </trkpt>
      <trkpt lat="44.1526" lon="0.58056">
        <ele>92.9</ele>
        <time>2015-01-03T08:39:58Z</time>
      </trkpt>
      <trkpt lat="44.15244" lon="0.58036">
        <ele>91.46</ele>
        <time>2015-01-03T08:40:14Z</time>
      </trkpt>
      <trkpt lat="44.15229" lon="0.58021">
        <ele>90.5</ele>
        <time>2015-01-03T08:40:28Z</time>
      </trkpt>
      <trkpt lat="44.15229" lon="0.58019">
        <ele>90.5</ele>
        <time>2015-01-03T08:40:29Z</time>
      </trkpt>
      <trkpt lat="44.15217" lon="0.57996">
        <ele>88.1</ele>
        <time>2015-01-03T08:40:44Z</time>
      </trkpt>
      <trkpt lat="44.15212" lon="0.57977">
        <ele>84.25</ele>
        <time>2015-01-03T08:40:55Z</time>
      </trkpt>
      <trkpt lat="44.15214" lon="0.5795">
        <ele>79.93</ele>
        <time>2015-01-03T08:41:11Z</time>
      </trkpt>
      <trkpt lat="44.15205" lon="0.57932">
        <ele>78</ele>
        <time>2015-01-03T08:41:25Z</time>
      </trkpt>
      <trkpt lat="44.15201" lon="0.5793">
        <ele>79.45</ele>
        <time>2015-01-03T08:41:29Z</time>
      </trkpt>
      <trkpt lat="44.15183" lon="0.57936">
        <ele>79.45</ele>
        <time>2015-01-03T08:41:45Z</time>
      </trkpt>
      <trkpt lat="44.15179" lon="0.57936">
        <ele>79.45</ele>
        <time>2015-01-03T08:41:48Z</time>
      </trkpt>
      <trkpt lat="44.15171" lon="0.57935">
        <ele>78.97</ele>
        <time>2015-01-03T08:41:55Z</time>
      </trkpt>
      <trkpt lat="44.15164" lon="0.57935">
        <ele>79.93</ele>
        <time>2015-01-03T08:42:01Z</time>
      </trkpt>
      <trkpt lat="44.15141" lon="0.57925">
        <ele>86.66</ele>
        <time>2015-01-03T08:42:18Z</time>
      </trkpt>
      <trkpt lat="44.15123" lon="0.57921">
        <ele>92.9</ele>
        <time>2015-01-03T08:42:33Z</time>
      </trkpt>
      <trkpt lat="44.15103" lon="0.57918">
        <ele>94.35</ele>
        <time>2015-01-03T08:42:49Z</time>
      </trkpt>
      <trkpt lat="44.15088" lon="0.57913">
        <ele>94.83</ele>
        <time>2015-01-03T08:43:03Z</time>
      </trkpt>
      <trkpt lat="44.15068" lon="0.57908">
        <ele>98.67</ele>
        <time>2015-01-03T08:43:19Z</time>
      </trkpt>
      <trkpt lat="44.15067" lon="0.57908">
        <ele>98.67</ele>
        <time>2015-01-03T08:43:20Z</time>
      </trkpt>
      <trkpt lat="44.15051" lon="0.57897">
        <ele>100.6</ele>
        <time>2015-01-03T08:43:33Z</time>
      </trkpt>
      <trkpt lat="44.15032" lon="0.57886">
        <ele>103</ele>
        <time>2015-01-03T08:43:49Z</time>
      </trkpt>
      <trkpt lat="44.15016" lon="0.57865">
        <ele>103.48</ele>
        <time>2015-01-03T08:44:04Z</time>
      </trkpt>
      <trkpt lat="44.15007" lon="0.57843">
        <ele>100.6</ele>
        <time>2015-01-03T08:44:18Z</time>
      </trkpt>
      <trkpt lat="44.15008" lon="0.57826">
        <ele>97.71</ele>
        <time>2015-01-03T08:44:30Z</time>
      </trkpt>
      <trkpt lat="44.15006" lon="0.57804">
        <ele>101.08</ele>
        <time>2015-01-03T08:44:45Z</time>
      </trkpt>
      <trkpt lat="44.15003" lon="0.57777">
        <ele>100.11</ele>
        <time>2015-01-03T08:45:01Z</time>
      </trkpt>
      <trkpt lat="44.15002" lon="0.57754">
        <ele>101.56</ele>
        <time>2015-01-03T08:45:17Z</time>
      </trkpt>
      <trkpt lat="44.14998" lon="0.57731">
        <ele>103.48</ele>
        <time>2015-01-03T08:45:33Z</time>
      </trkpt>
      <trkpt lat="44.1499" lon="0.57712">
        <ele>102.04</ele>
        <time>2015-01-03T08:45:47Z</time>
      </trkpt>
      <trkpt lat="44.14989" lon="0.5769">
        <ele>99.15</ele>
        <time>2015-01-03T08:46:01Z</time>
      </trkpt>
      <trkpt lat="44.14983" lon="0.57662">
        <ele>100.11</ele>
        <time>2015-01-03T08:46:16Z</time>
      </trkpt>
      <trkpt lat="44.14974" lon="0.5764">
        <ele>99.15</ele>
        <time>2015-01-03T08:46:31Z</time>
      </trkpt>
      <trkpt lat="44.14964" lon="0.57621">
        <ele>100.11</ele>
        <time>2015-01-03T08:46:45Z</time>
      </trkpt>
      <trkpt lat="44.14951" lon="0.57609">
        <ele>97.71</ele>
        <time>2015-01-03T08:46:59Z</time>
      </trkpt>
      <trkpt lat="44.1494" lon="0.57603">
        <ele>96.27</ele>
        <time>2015-01-03T08:47:12Z</time>
      </trkpt>
      <trkpt lat="44.14929" lon="0.57589">
        <ele>97.71</ele>
        <time>2015-01-03T08:47:27Z</time>
      </trkpt>
      <trkpt lat="44.14918" lon="0.57576">
        <ele>99.63</ele>
        <time>2015-01-03T08:47:40Z</time>
      </trkpt>
      <trkpt lat="44.14904" lon="0.57563">
        <ele>102.52</ele>
        <time>2015-01-03T08:47:54Z</time>
      </trkpt>
      <trkpt lat="44.14887" lon="0.57553">
        <ele>103</ele>
        <time>2015-01-03T08:48:08Z</time>
      </trkpt>
      <trkpt lat="44.14869" lon="0.57548">
        <ele>102.52</ele>
        <time>2015-01-03T08:48:22Z</time>
      </trkpt>
      <trkpt lat="44.1485" lon="0.57544">
        <ele>104.44</ele>
        <time>2015-01-03T08:48:37Z</time>
      </trkpt>
      <trkpt lat="44.14847" lon="0.57543">
        <ele>104.44</ele>
        <time>2015-01-03T08:48:40Z</time>
      </trkpt>
      <trkpt lat="44.14828" lon="0.57539">
        <ele>106.36</ele>
        <time>2015-01-03T08:48:55Z</time>
      </trkpt>
      <trkpt lat="44.14811" lon="0.57536">
        <ele>107.81</ele>
        <time>2015-01-03T08:49:09Z</time>
      </trkpt>
      <trkpt lat="44.14798" lon="0.57527">
        <ele>106.36</ele>
        <time>2015-01-03T08:49:22Z</time>
      </trkpt>
      <trkpt lat="44.14782" lon="0.57518">
        <ele>106.84</ele>
        <time>2015-01-03T08:49:38Z</time>
      </trkpt>
      <trkpt lat="44.14768" lon="0.57508">
        <ele>106.36</ele>
        <time>2015-01-03T08:49:53Z</time>
      </trkpt>
      <trkpt lat="44.14761" lon="0.5749">
        <ele>113.09</ele>
        <time>2015-01-03T08:50:06Z</time>
      </trkpt>
      <trkpt lat="44.14763" lon="0.57482">
        <ele>116.46</ele>
        <time>2015-01-03T08:50:13Z</time>
      </trkpt>
      <trkpt lat="44.14766" lon="0.57463">
        <ele>122.22</ele>
        <time>2015-01-03T08:50:27Z</time>
      </trkpt>
      <trkpt lat="44.14771" lon="0.57447">
        <ele>125.59</ele>
        <time>2015-01-03T08:50:38Z</time>
      </trkpt>
      <trkpt lat="44.14777" lon="0.5744">
        <ele>125.11</ele>
        <time>2015-01-03T08:50:45Z</time>
      </trkpt>
      <trkpt lat="44.14796" lon="0.57421">
        <ele>125.11</ele>
        <time>2015-01-03T08:51:05Z</time>
      </trkpt>
      <trkpt lat="44.14804" lon="0.57393">
        <ele>129.43</ele>
        <time>2015-01-03T08:51:24Z</time>
      </trkpt>
      <trkpt lat="44.14805" lon="0.57391">
        <ele>129.92</ele>
        <time>2015-01-03T08:51:26Z</time>
      </trkpt>
      <trkpt lat="44.14818" lon="0.57382">
        <ele>130.88</ele>
        <time>2015-01-03T08:51:41Z</time>
      </trkpt>
      <trkpt lat="44.14829" lon="0.57375">
        <ele>130.88</ele>
        <time>2015-01-03T08:51:52Z</time>
      </trkpt>
      <trkpt lat="44.14832" lon="0.57373">
        <ele>130.88</ele>
        <time>2015-01-03T08:51:55Z</time>
      </trkpt>
      <trkpt lat="44.14851" lon="0.57362">
        <ele>134.24</ele>
        <time>2015-01-03T08:52:12Z</time>
      </trkpt>
      <trkpt lat="44.14853" lon="0.57358">
        <ele>134.72</ele>
        <time>2015-01-03T08:52:15Z</time>
      </trkpt>
      <trkpt lat="44.14862" lon="0.57339">
        <ele>135.2</ele>
        <time>2015-01-03T08:52:30Z</time>
      </trkpt>
      <trkpt lat="44.1488" lon="0.57327">
        <ele>132.32</ele>
        <time>2015-01-03T08:52:49Z</time>
      </trkpt>
      <trkpt lat="44.14902" lon="0.57313">
        <ele>131.36</ele>
        <time>2015-01-03T08:53:07Z</time>
      </trkpt>
      <trkpt lat="44.1492" lon="0.57302">
        <ele>131.36</ele>
        <time>2015-01-03T08:53:23Z</time>
      </trkpt>
      <trkpt lat="44.14928" lon="0.57289">
        <ele>128.95</ele>
        <time>2015-01-03T08:53:35Z</time>
      </trkpt>
      <trkpt lat="44.14912" lon="0.57257">
        <ele>135.2</ele>
        <time>2015-01-03T08:53:55Z</time>
      </trkpt>
      <trkpt lat="44.14894" lon="0.5723">
        <ele>135.68</ele>
        <time>2015-01-03T08:54:16Z</time>
      </trkpt>
      <trkpt lat="44.14879" lon="0.57206">
        <ele>137.13</ele>
        <time>2015-01-03T08:54:36Z</time>
      </trkpt>
      <trkpt lat="44.14865" lon="0.57184">
        <ele>137.13</ele>
        <time>2015-01-03T08:54:54Z</time>
      </trkpt>
      <trkpt lat="44.14852" lon="0.57163">
        <ele>138.57</ele>
        <time>2015-01-03T08:55:12Z</time>
      </trkpt>
      <trkpt lat="44.14834" lon="0.57137">
        <ele>139.05</ele>
        <time>2015-01-03T08:55:33Z</time>
      </trkpt>
      <trkpt lat="44.1482" lon="0.57116">
        <ele>140.01</ele>
        <time>2015-01-03T08:55:50Z</time>
      </trkpt>
      <trkpt lat="44.14807" lon="0.57088">
        <ele>139.53</ele>
        <time>2015-01-03T08:56:10Z</time>
      </trkpt>
      <trkpt lat="44.14798" lon="0.57067">
        <ele>141.45</ele>
        <time>2015-01-03T08:56:27Z</time>
      </trkpt>
      <trkpt lat="44.1479" lon="0.5705">
        <ele>141.45</ele>
        <time>2015-01-03T08:56:42Z</time>
      </trkpt>
      <trkpt lat="44.14779" lon="0.57027">
        <ele>143.85</ele>
        <time>2015-01-03T08:57:00Z</time>
      </trkpt>
      <trkpt lat="44.1477" lon="0.57003">
        <ele>146.26</ele>
        <time>2015-01-03T08:57:18Z</time>
      </trkpt>
      <trkpt lat="44.14761" lon="0.56988">
        <ele>147.7</ele>
        <time>2015-01-03T08:57:33Z</time>
      </trkpt>
      <trkpt lat="44.14758" lon="0.56983">
        <ele>148.66</ele>
        <time>2015-01-03T08:57:39Z</time>
      </trkpt>
      <trkpt lat="44.14749" lon="0.56973">
        <ele>149.62</ele>
        <time>2015-01-03T08:57:53Z</time>
      </trkpt>
      <trkpt lat="44.14748" lon="0.56972">
        <ele>149.62</ele>
        <time>2015-01-03T08:57:54Z</time>
      </trkpt>
      <trkpt lat="44.14736" lon="0.56965">
        <ele>152.03</ele>
        <time>2015-01-03T08:58:09Z</time>
      </trkpt>
      <trkpt lat="44.14721" lon="0.56965">
        <ele>152.99</ele>
        <time>2015-01-03T08:58:23Z</time>
      </trkpt>
      <trkpt lat="44.14706" lon="0.5697">
        <ele>153.47</ele>
        <time>2015-01-03T08:58:39Z</time>
      </trkpt>
      <trkpt lat="44.14689" lon="0.56968">
        <ele>155.87</ele>
        <time>2015-01-03T08:58:54Z</time>
      </trkpt>
      <trkpt lat="44.14671" lon="0.56963">
        <ele>156.35</ele>
        <time>2015-01-03T08:59:11Z</time>
      </trkpt>
      <trkpt lat="44.14665" lon="0.56962">
        <ele>156.35</ele>
        <time>2015-01-03T08:59:17Z</time>
      </trkpt>
      <trkpt lat="44.14644" lon="0.56954">
        <ele>159.24</ele>
        <time>2015-01-03T08:59:37Z</time>
      </trkpt>
      <trkpt lat="44.14627" lon="0.56947">
        <ele>160.68</ele>
        <time>2015-01-03T08:59:54Z</time>
      </trkpt>
      <trkpt lat="44.14611" lon="0.56945">
        <ele>160.2</ele>
        <time>2015-01-03T09:00:09Z</time>
      </trkpt>
      <trkpt lat="44.14593" lon="0.56942">
        <ele>165.96</ele>
        <time>2015-01-03T09:00:24Z</time>
      </trkpt>
      <trkpt lat="44.14569" lon="0.56939">
        <ele>168.85</ele>
        <time>2015-01-03T09:00:41Z</time>
      </trkpt>
      <trkpt lat="44.14545" lon="0.56934">
        <ele>170.77</ele>
        <time>2015-01-03T09:00:59Z</time>
      </trkpt>
      <trkpt lat="44.14518" lon="0.56928">
        <ele>171.73</ele>
        <time>2015-01-03T09:01:18Z</time>
      </trkpt>
      <trkpt lat="44.14494" lon="0.56922">
        <ele>170.77</ele>
        <time>2015-01-03T09:01:36Z</time>
      </trkpt>
      <trkpt lat="44.14489" lon="0.56921">
        <ele>170.29</ele>
        <time>2015-01-03T09:01:40Z</time>
      </trkpt>
      <trkpt lat="44.1447" lon="0.56907">
        <ele>171.73</ele>
        <time>2015-01-03T09:01:55Z</time>
      </trkpt>
      <trkpt lat="44.14462" lon="0.56888">
        <ele>171.25</ele>
        <time>2015-01-03T09:02:08Z</time>
      </trkpt>
      <trkpt lat="44.14458" lon="0.56862">
        <ele>169.33</ele>
        <time>2015-01-03T09:02:24Z</time>
      </trkpt>
      <trkpt lat="44.14446" lon="0.56842">
        <ele>165.96</ele>
        <time>2015-01-03T09:02:40Z</time>
      </trkpt>
      <trkpt lat="44.14432" lon="0.56821">
        <ele>165.48</ele>
        <time>2015-01-03T09:02:55Z</time>
      </trkpt>
      <trkpt lat="44.14423" lon="0.56798">
        <ele>160.2</ele>
        <time>2015-01-03T09:03:12Z</time>
      </trkpt>
      <trkpt lat="44.14418" lon="0.56791">
        <ele>158.75</ele>
        <time>2015-01-03T09:03:18Z</time>
      </trkpt>
      <trkpt lat="44.14405" lon="0.56766">
        <ele>155.39</ele>
        <time>2015-01-03T09:03:36Z</time>
      </trkpt>
      <trkpt lat="44.14396" lon="0.56742">
        <ele>150.58</ele>
        <time>2015-01-03T09:03:53Z</time>
      </trkpt>
      <trkpt lat="44.14383" lon="0.56715">
        <ele>143.85</ele>
        <time>2015-01-03T09:04:12Z</time>
      </trkpt>
      <trkpt lat="44.14374" lon="0.56689">
        <ele>139.05</ele>
        <time>2015-01-03T09:04:30Z</time>
      </trkpt>
      <trkpt lat="44.14365" lon="0.56658">
        <ele>132.32</ele>
        <time>2015-01-03T09:04:48Z</time>
      </trkpt>
      <trkpt lat="44.14351" lon="0.56622">
        <ele>127.03</ele>
        <time>2015-01-03T09:05:10Z</time>
      </trkpt>
      <trkpt lat="44.14336" lon="0.56589">
        <ele>122.71</ele>
        <time>2015-01-03T09:05:32Z</time>
      </trkpt>
      <trkpt lat="44.14323" lon="0.56561">
        <ele>119.82</ele>
        <time>2015-01-03T09:05:51Z</time>
      </trkpt>
      <trkpt lat="44.14311" lon="0.56534">
        <ele>115.01</ele>
        <time>2015-01-03T09:06:10Z</time>
      </trkpt>
      <trkpt lat="44.14298" lon="0.56508">
        <ele>110.69</ele>
        <time>2015-01-03T09:06:28Z</time>
      </trkpt>
      <trkpt lat="44.14282" lon="0.56482">
        <ele>108.77</ele>
        <time>2015-01-03T09:06:46Z</time>
      </trkpt>
      <trkpt lat="44.14268" lon="0.56455">
        <ele>105.4</ele>
        <time>2015-01-03T09:07:05Z</time>
      </trkpt>
      <trkpt lat="44.14246" lon="0.56442">
        <ele>103</ele>
        <time>2015-01-03T09:07:23Z</time>
      </trkpt>
      <trkpt lat="44.1422" lon="0.56431">
        <ele>103</ele>
        <time>2015-01-03T09:07:44Z</time>
      </trkpt>
      <trkpt lat="44.14201" lon="0.56419">
        <ele>102.52</ele>
        <time>2015-01-03T09:07:59Z</time>
      </trkpt>
      <trkpt lat="44.14176" lon="0.56398">
        <ele>103</ele>
        <time>2015-01-03T09:08:19Z</time>
      </trkpt>
      <trkpt lat="44.14175" lon="0.56397">
        <ele>103</ele>
        <time>2015-01-03T09:08:20Z</time>
      </trkpt>
      <trkpt lat="44.14168" lon="0.56363">
        <ele>101.08</ele>
        <time>2015-01-03T09:08:36Z</time>
      </trkpt>
      <trkpt lat="44.14173" lon="0.56328">
        <ele>99.63</ele>
        <time>2015-01-03T09:08:55Z</time>
      </trkpt>
      <trkpt lat="44.14185" lon="0.56293">
        <ele>101.08</ele>
        <time>2015-01-03T09:09:15Z</time>
      </trkpt>
      <trkpt lat="44.14195" lon="0.56263">
        <ele>103.96</ele>
        <time>2015-01-03T09:09:33Z</time>
      </trkpt>
      <trkpt lat="44.14204" lon="0.5623">
        <ele>104.44</ele>
        <time>2015-01-03T09:09:51Z</time>
      </trkpt>
      <trkpt lat="44.142" lon="0.56203">
        <ele>104.44</ele>
        <time>2015-01-03T09:10:04Z</time>
      </trkpt>
      <trkpt lat="44.14196" lon="0.56173">
        <ele>102.04</ele>
        <time>2015-01-03T09:10:21Z</time>
      </trkpt>
      <trkpt lat="44.14203" lon="0.5614">
        <ele>103</ele>
        <time>2015-01-03T09:10:39Z</time>
      </trkpt>
      <trkpt lat="44.14212" lon="0.56111">
        <ele>103.96</ele>
        <time>2015-01-03T09:10:56Z</time>
      </trkpt>
      <trkpt lat="44.14219" lon="0.56079">
        <ele>105.4</ele>
        <time>2015-01-03T09:11:15Z</time>
      </trkpt>
      <trkpt lat="44.14222" lon="0.56071">
        <ele>104.92</ele>
        <time>2015-01-03T09:11:31Z</time>
      </trkpt>
      <trkpt lat="44.1422" lon="0.56052">
        <ele>104.44</ele>
        <time>2015-01-03T09:11:44Z</time>
      </trkpt>
      <trkpt lat="44.14222" lon="0.56044">
        <ele>103.48</ele>
        <time>2015-01-03T09:11:49Z</time>
      </trkpt>
      <trkpt lat="44.14223" lon="0.56033">
        <ele>102.52</ele>
        <time>2015-01-03T09:11:56Z</time>
      </trkpt>
      <trkpt lat="44.14233" lon="0.56013">
        <ele>100.11</ele>
        <time>2015-01-03T09:12:14Z</time>
      </trkpt>
      <trkpt lat="44.14235" lon="0.56008">
        <ele>99.63</ele>
        <time>2015-01-03T09:12:30Z</time>
      </trkpt>
      <trkpt lat="44.14236" lon="0.56007">
        <ele>99.63</ele>
        <time>2015-01-03T09:12:50Z</time>
      </trkpt>
      <trkpt lat="44.14236" lon="0.56007">
        <ele>99.63</ele>
        <time>2015-01-03T09:12:52Z</time>
      </trkpt>
      <trkpt lat="44.14239" lon="0.56005">
        <ele>100.11</ele>
        <time>2015-01-03T09:13:03Z</time>
      </trkpt>
      <trkpt lat="44.1424" lon="0.56007">
        <ele>100.11</ele>
        <time>2015-01-03T09:13:37Z</time>
      </trkpt>
      <trkpt lat="44.1424" lon="0.56009">
        <ele>100.6</ele>
        <time>2015-01-03T09:14:12Z</time>
      </trkpt>
      <trkpt lat="44.1424" lon="0.56009">
        <ele>100.6</ele>
        <time>2015-01-03T09:14:18Z</time>
      </trkpt>
      <trkpt lat="44.14235" lon="0.56006">
        <ele>99.63</ele>
        <time>2015-01-03T09:14:26Z</time>
      </trkpt>
      <trkpt lat="44.14234" lon="0.56006">
        <ele>101.08</ele>
        <time>2015-01-03T09:14:43Z</time>
      </trkpt>
      <trkpt lat="44.14225" lon="0.55995">
        <ele>101.56</ele>
        <time>2015-01-03T09:14:55Z</time>
      </trkpt>
      <trkpt lat="44.14204" lon="0.55977">
        <ele>98.67</ele>
        <time>2015-01-03T09:15:15Z</time>
      </trkpt>
      <trkpt lat="44.1418" lon="0.55957">
        <ele>96.75</ele>
        <time>2015-01-03T09:15:37Z</time>
      </trkpt>
      <trkpt lat="44.14154" lon="0.55944">
        <ele>94.83</ele>
        <time>2015-01-03T09:15:57Z</time>
      </trkpt>
      <trkpt lat="44.14134" lon="0.55936">
        <ele>91.94</ele>
        <time>2015-01-03T09:16:15Z</time>
      </trkpt>
      <trkpt lat="44.14107" lon="0.55943">
        <ele>93.39</ele>
        <time>2015-01-03T09:16:34Z</time>
      </trkpt>
      <trkpt lat="44.14084" lon="0.55951">
        <ele>94.83</ele>
        <time>2015-01-03T09:16:52Z</time>
      </trkpt>
      <trkpt lat="44.1408" lon="0.55947">
        <ele>94.83</ele>
        <time>2015-01-03T09:16:55Z</time>
      </trkpt>
      <trkpt lat="44.14058" lon="0.55933">
        <ele>92.9</ele>
        <time>2015-01-03T09:17:13Z</time>
      </trkpt>
      <trkpt lat="44.1405" lon="0.55893">
        <ele>88.58</ele>
        <time>2015-01-03T09:17:33Z</time>
      </trkpt>
      <trkpt lat="44.14041" lon="0.55862">
        <ele>89.54</ele>
        <time>2015-01-03T09:17:51Z</time>
      </trkpt>
      <trkpt lat="44.14033" lon="0.55835">
        <ele>88.1</ele>
        <time>2015-01-03T09:18:08Z</time>
      </trkpt>
      <trkpt lat="44.14021" lon="0.55797">
        <ele>89.54</ele>
        <time>2015-01-03T09:18:29Z</time>
      </trkpt>
      <trkpt lat="44.1401" lon="0.55755">
        <ele>92.42</ele>
        <time>2015-01-03T09:18:51Z</time>
      </trkpt>
      <trkpt lat="44.13994" lon="0.55731">
        <ele>93.87</ele>
        <time>2015-01-03T09:19:09Z</time>
      </trkpt>
      <trkpt lat="44.13964" lon="0.55727">
        <ele>91.46</ele>
        <time>2015-01-03T09:19:32Z</time>
      </trkpt>
      <trkpt lat="44.13949" lon="0.55706">
        <ele>89.54</ele>
        <time>2015-01-03T09:19:50Z</time>
      </trkpt>
      <trkpt lat="44.13949" lon="0.55702">
        <ele>89.06</ele>
        <time>2015-01-03T09:19:52Z</time>
      </trkpt>
      <trkpt lat="44.13947" lon="0.55681">
        <ele>87.62</ele>
        <time>2015-01-03T09:20:05Z</time>
      </trkpt>
      <trkpt lat="44.13942" lon="0.55648">
        <ele>87.14</ele>
        <time>2015-01-03T09:20:24Z</time>
      </trkpt>
      <trkpt lat="44.13939" lon="0.55623">
        <ele>87.14</ele>
        <time>2015-01-03T09:20:39Z</time>
      </trkpt>
      <trkpt lat="44.13938" lon="0.5559">
        <ele>90.5</ele>
        <time>2015-01-03T09:20:57Z</time>
      </trkpt>
      <trkpt lat="44.13934" lon="0.55552">
        <ele>94.35</ele>
        <time>2015-01-03T09:21:16Z</time>
      </trkpt>
      <trkpt lat="44.1393" lon="0.5552">
        <ele>96.27</ele>
        <time>2015-01-03T09:21:33Z</time>
      </trkpt>
      <trkpt lat="44.13926" lon="0.55483">
        <ele>97.23</ele>
        <time>2015-01-03T09:21:54Z</time>
      </trkpt>
      <trkpt lat="44.13921" lon="0.55451">
        <ele>97.23</ele>
        <time>2015-01-03T09:22:12Z</time>
      </trkpt>
      <trkpt lat="44.13914" lon="0.5542">
        <ele>99.15</ele>
        <time>2015-01-03T09:22:29Z</time>
      </trkpt>
      <trkpt lat="44.13908" lon="0.55393">
        <ele>98.67</ele>
        <time>2015-01-03T09:22:45Z</time>
      </trkpt>
      <trkpt lat="44.139" lon="0.55361">
        <ele>98.19</ele>
        <time>2015-01-03T09:23:03Z</time>
      </trkpt>
      <trkpt lat="44.13889" lon="0.55333">
        <ele>97.23</ele>
        <time>2015-01-03T09:23:21Z</time>
      </trkpt>
      <trkpt lat="44.13874" lon="0.55303">
        <ele>97.71</ele>
        <time>2015-01-03T09:23:40Z</time>
      </trkpt>
      <trkpt lat="44.13864" lon="0.55271">
        <ele>99.15</ele>
        <time>2015-01-03T09:23:58Z</time>
      </trkpt>
      <trkpt lat="44.13857" lon="0.55239">
        <ele>96.27</ele>
        <time>2015-01-03T09:24:17Z</time>
      </trkpt>
      <trkpt lat="44.13854" lon="0.5523">
        <ele>94.83</ele>
        <time>2015-01-03T09:24:23Z</time>
      </trkpt>
      <trkpt lat="44.13842" lon="0.55193">
        <ele>96.75</ele>
        <time>2015-01-03T09:24:44Z</time>
      </trkpt>
      <trkpt lat="44.1383" lon="0.55153">
        <ele>99.63</ele>
        <time>2015-01-03T09:25:08Z</time>
      </trkpt>
      <trkpt lat="44.13824" lon="0.55135">
        <ele>101.08</ele>
        <time>2015-01-03T09:25:21Z</time>
      </trkpt>
      <trkpt lat="44.13824" lon="0.55132">
        <ele>101.56</ele>
        <time>2015-01-03T09:25:23Z</time>
      </trkpt>
      <trkpt lat="44.13816" lon="0.55103">
        <ele>104.92</ele>
        <time>2015-01-03T09:25:42Z</time>
      </trkpt>
      <trkpt lat="44.13805" lon="0.55072">
        <ele>106.36</ele>
        <time>2015-01-03T09:26:00Z</time>
      </trkpt>
      <trkpt lat="44.13791" lon="0.55032">
        <ele>106.36</ele>
        <time>2015-01-03T09:26:23Z</time>
      </trkpt>
      <trkpt lat="44.1378" lon="0.54997">
        <ele>107.81</ele>
        <time>2015-01-03T09:26:43Z</time>
      </trkpt>
      <trkpt lat="44.13768" lon="0.54961">
        <ele>110.21</ele>
        <time>2015-01-03T09:27:04Z</time>
      </trkpt>
      <trkpt lat="44.13754" lon="0.54922">
        <ele>111.17</ele>
        <time>2015-01-03T09:27:25Z</time>
      </trkpt>
      <trkpt lat="44.13745" lon="0.54885">
        <ele>109.25</ele>
        <time>2015-01-03T09:27:46Z</time>
      </trkpt>
      <trkpt lat="44.13733" lon="0.5485">
        <ele>110.21</ele>
        <time>2015-01-03T09:28:08Z</time>
      </trkpt>
      <trkpt lat="44.13727" lon="0.54828">
        <ele>110.21</ele>
        <time>2015-01-03T09:28:21Z</time>
      </trkpt>
      <trkpt lat="44.13744" lon="0.54814">
        <ele>108.77</ele>
        <time>2015-01-03T09:28:39Z</time>
      </trkpt>
      <trkpt lat="44.13769" lon="0.54801">
        <ele>102.52</ele>
        <time>2015-01-03T09:29:02Z</time>
      </trkpt>
      <trkpt lat="44.13788" lon="0.54789">
        <ele>97.23</ele>
        <time>2015-01-03T09:29:20Z</time>
      </trkpt>
      <trkpt lat="44.13794" lon="0.54782">
        <ele>97.23</ele>
        <time>2015-01-03T09:29:25Z</time>
      </trkpt>
      <trkpt lat="44.13796" lon="0.54754">
        <ele>98.67</ele>
        <time>2015-01-03T09:29:40Z</time>
      </trkpt>
      <trkpt lat="44.13787" lon="0.54725">
        <ele>99.63</ele>
        <time>2015-01-03T09:29:57Z</time>
      </trkpt>
      <trkpt lat="44.13778" lon="0.54695">
        <ele>99.63</ele>
        <time>2015-01-03T09:30:15Z</time>
      </trkpt>
      <trkpt lat="44.13768" lon="0.54667">
        <ele>98.67</ele>
        <time>2015-01-03T09:30:32Z</time>
      </trkpt>
      <trkpt lat="44.13759" lon="0.54637">
        <ele>99.15</ele>
        <time>2015-01-03T09:30:50Z</time>
      </trkpt>
      <trkpt lat="44.13748" lon="0.54609">
        <ele>100.11</ele>
        <time>2015-01-03T09:31:07Z</time>
      </trkpt>
      <trkpt lat="44.13735" lon="0.54576">
        <ele>100.11</ele>
        <time>2015-01-03T09:31:27Z</time>
      </trkpt>
      <trkpt lat="44.13722" lon="0.54552">
        <ele>99.63</ele>
        <time>2015-01-03T09:31:44Z</time>
      </trkpt>
      <trkpt lat="44.13723" lon="0.54526">
        <ele>98.19</ele>
        <time>2015-01-03T09:32:04Z</time>
      </trkpt>
      <trkpt lat="44.13724" lon="0.54524">
        <ele>98.19</ele>
        <time>2015-01-03T09:32:05Z</time>
      </trkpt>
      <trkpt lat="44.13725" lon="0.54513">
        <ele>98.19</ele>
        <time>2015-01-03T09:32:11Z</time>
      </trkpt>
      <trkpt lat="44.13711" lon="0.54482">
        <ele>99.63</ele>
        <time>2015-01-03T09:32:31Z</time>
      </trkpt>
      <trkpt lat="44.13697" lon="0.54456">
        <ele>99.63</ele>
        <time>2015-01-03T09:32:49Z</time>
      </trkpt>
      <trkpt lat="44.13686" lon="0.54429">
        <ele>100.11</ele>
        <time>2015-01-03T09:33:07Z</time>
      </trkpt>
      <trkpt lat="44.13676" lon="0.54406">
        <ele>100.11</ele>
        <time>2015-01-03T09:33:22Z</time>
      </trkpt>
      <trkpt lat="44.13664" lon="0.54382">
        <ele>100.6</ele>
        <time>2015-01-03T09:33:38Z</time>
      </trkpt>
      <trkpt lat="44.13651" lon="0.54361">
        <ele>100.11</ele>
        <time>2015-01-03T09:33:54Z</time>
      </trkpt>
      <trkpt lat="44.13641" lon="0.5434">
        <ele>100.11</ele>
        <time>2015-01-03T09:34:09Z</time>
      </trkpt>
      <trkpt lat="44.13642" lon="0.54327">
        <ele>100.11</ele>
        <time>2015-01-03T09:34:16Z</time>
      </trkpt>
      <trkpt lat="44.13659" lon="0.5431">
        <ele>101.56</ele>
        <time>2015-01-03T09:34:33Z</time>
      </trkpt>
      <trkpt lat="44.13676" lon="0.54299">
        <ele>101.08</ele>
        <time>2015-01-03T09:34:49Z</time>
      </trkpt>
      <trkpt lat="44.13688" lon="0.54287">
        <ele>101.08</ele>
        <time>2015-01-03T09:35:04Z</time>
      </trkpt>
      <trkpt lat="44.13702" lon="0.54273">
        <ele>99.63</ele>
        <time>2015-01-03T09:35:22Z</time>
      </trkpt>
      <trkpt lat="44.13706" lon="0.54261">
        <ele>103.48</ele>
        <time>2015-01-03T09:35:32Z</time>
      </trkpt>
      <trkpt lat="44.13706" lon="0.5423">
        <ele>111.65</ele>
        <time>2015-01-03T09:35:49Z</time>
      </trkpt>
      <trkpt lat="44.1371" lon="0.54203">
        <ele>113.57</ele>
        <time>2015-01-03T09:36:05Z</time>
      </trkpt>
      <trkpt lat="44.13716" lon="0.5418">
        <ele>113.09</ele>
        <time>2015-01-03T09:36:20Z</time>
      </trkpt>
      <trkpt lat="44.13721" lon="0.54154">
        <ele>113.09</ele>
        <time>2015-01-03T09:36:36Z</time>
      </trkpt>
      <trkpt lat="44.13722" lon="0.54144">
        <ele>114.05</ele>
        <time>2015-01-03T09:36:42Z</time>
      </trkpt>
      <trkpt lat="44.13718" lon="0.54115">
        <ele>116.94</ele>
        <time>2015-01-03T09:36:59Z</time>
      </trkpt>
      <trkpt lat="44.13714" lon="0.54089">
        <ele>120.3</ele>
        <time>2015-01-03T09:37:16Z</time>
      </trkpt>
      <trkpt lat="44.13707" lon="0.54067">
        <ele>119.82</ele>
        <time>2015-01-03T09:37:33Z</time>
      </trkpt>
      <trkpt lat="44.13703" lon="0.54042">
        <ele>120.3</ele>
        <time>2015-01-03T09:37:49Z</time>
      </trkpt>
      <trkpt lat="44.137" lon="0.54017">
        <ele>122.22</ele>
        <time>2015-01-03T09:38:05Z</time>
      </trkpt>
      <trkpt lat="44.137" lon="0.54002">
        <ele>122.71</ele>
        <time>2015-01-03T09:38:14Z</time>
      </trkpt>
      <trkpt lat="44.13699" lon="0.53998">
        <ele>122.71</ele>
        <time>2015-01-03T09:38:16Z</time>
      </trkpt>
      <trkpt lat="44.13699" lon="0.53977">
        <ele>123.19</ele>
        <time>2015-01-03T09:38:32Z</time>
      </trkpt>
      <trkpt lat="44.13699" lon="0.53955">
        <ele>124.15</ele>
        <time>2015-01-03T09:38:47Z</time>
      </trkpt>
      <trkpt lat="44.137" lon="0.53932">
        <ele>125.11</ele>
        <time>2015-01-03T09:39:03Z</time>
      </trkpt>
      <trkpt lat="44.13701" lon="0.53911">
        <ele>129.43</ele>
        <time>2015-01-03T09:39:18Z</time>
      </trkpt>
      <trkpt lat="44.13701" lon="0.53888">
        <ele>130.88</ele>
        <time>2015-01-03T09:39:33Z</time>
      </trkpt>
      <trkpt lat="44.13701" lon="0.5387">
        <ele>129.92</ele>
        <time>2015-01-03T09:39:47Z</time>
      </trkpt>
      <trkpt lat="44.13698" lon="0.53847">
        <ele>127.51</ele>
        <time>2015-01-03T09:40:02Z</time>
      </trkpt>
      <trkpt lat="44.13697" lon="0.53836">
        <ele>127.99</ele>
        <time>2015-01-03T09:40:09Z</time>
      </trkpt>
      <trkpt lat="44.13692" lon="0.53808">
        <ele>128.47</ele>
        <time>2015-01-03T09:40:27Z</time>
      </trkpt>
      <trkpt lat="44.1369" lon="0.53799">
        <ele>128.95</ele>
        <time>2015-01-03T09:40:33Z</time>
      </trkpt>
      <trkpt lat="44.13693" lon="0.53775">
        <ele>133.76</ele>
        <time>2015-01-03T09:40:48Z</time>
      </trkpt>
      <trkpt lat="44.137" lon="0.53753">
        <ele>136.64</ele>
        <time>2015-01-03T09:41:04Z</time>
      </trkpt>
      <trkpt lat="44.13706" lon="0.53732">
        <ele>140.01</ele>
        <time>2015-01-03T09:41:20Z</time>
      </trkpt>
      <trkpt lat="44.13715" lon="0.5371">
        <ele>142.41</ele>
        <time>2015-01-03T09:41:36Z</time>
      </trkpt>
      <trkpt lat="44.13724" lon="0.53684">
        <ele>146.74</ele>
        <time>2015-01-03T09:41:54Z</time>
      </trkpt>
      <trkpt lat="44.13737" lon="0.53663">
        <ele>147.7</ele>
        <time>2015-01-03T09:42:10Z</time>
      </trkpt>
      <trkpt lat="44.1375" lon="0.5365">
        <ele>149.14</ele>
        <time>2015-01-03T09:42:26Z</time>
      </trkpt>
      <trkpt lat="44.13764" lon="0.53635">
        <ele>151.06</ele>
        <time>2015-01-03T09:42:41Z</time>
      </trkpt>
      <trkpt lat="44.13783" lon="0.53616">
        <ele>153.47</ele>
        <time>2015-01-03T09:42:59Z</time>
      </trkpt>
      <trkpt lat="44.1379" lon="0.53602">
        <ele>152.51</ele>
        <time>2015-01-03T09:43:09Z</time>
      </trkpt>
      <trkpt lat="44.1378" lon="0.53579">
        <ele>152.99</ele>
        <time>2015-01-03T09:43:26Z</time>
      </trkpt>
      <trkpt lat="44.13761" lon="0.53551">
        <ele>151.06</ele>
        <time>2015-01-03T09:43:46Z</time>
      </trkpt>
      <trkpt lat="44.13745" lon="0.53523">
        <ele>149.14</ele>
        <time>2015-01-03T09:44:06Z</time>
      </trkpt>
      <trkpt lat="44.13727" lon="0.53494">
        <ele>147.22</ele>
        <time>2015-01-03T09:44:26Z</time>
      </trkpt>
      <trkpt lat="44.13711" lon="0.53471">
        <ele>146.26</ele>
        <time>2015-01-03T09:44:45Z</time>
      </trkpt>
      <trkpt lat="44.13696" lon="0.53449">
        <ele>143.37</ele>
        <time>2015-01-03T09:45:03Z</time>
      </trkpt>
      <trkpt lat="44.1368" lon="0.53425">
        <ele>145.3</ele>
        <time>2015-01-03T09:45:20Z</time>
      </trkpt>
      <trkpt lat="44.13678" lon="0.53423">
        <ele>144.82</ele>
        <time>2015-01-03T09:45:22Z</time>
      </trkpt>
      <trkpt lat="44.13673" lon="0.5341">
        <ele>144.34</ele>
        <time>2015-01-03T09:45:30Z</time>
      </trkpt>
      <trkpt lat="44.13663" lon="0.53376">
        <ele>145.3</ele>
        <time>2015-01-03T09:45:50Z</time>
      </trkpt>
      <trkpt lat="44.13654" lon="0.53346">
        <ele>145.78</ele>
        <time>2015-01-03T09:46:07Z</time>
      </trkpt>
      <trkpt lat="44.13642" lon="0.53318">
        <ele>146.74</ele>
        <time>2015-01-03T09:46:24Z</time>
      </trkpt>
      <trkpt lat="44.13618" lon="0.53307">
        <ele>145.78</ele>
        <time>2015-01-03T09:46:44Z</time>
      </trkpt>
      <trkpt lat="44.13591" lon="0.53309">
        <ele>144.82</ele>
        <time>2015-01-03T09:47:04Z</time>
      </trkpt>
      <trkpt lat="44.13568" lon="0.53319">
        <ele>142.89</ele>
        <time>2015-01-03T09:47:22Z</time>
      </trkpt>
      <trkpt lat="44.13548" lon="0.53332">
        <ele>142.41</ele>
        <time>2015-01-03T09:47:40Z</time>
      </trkpt>
      <trkpt lat="44.13527" lon="0.53346">
        <ele>143.85</ele>
        <time>2015-01-03T09:47:58Z</time>
      </trkpt>
      <trkpt lat="44.13501" lon="0.53356">
        <ele>142.41</ele>
        <time>2015-01-03T09:48:18Z</time>
      </trkpt>
      <trkpt lat="44.13476" lon="0.53357">
        <ele>141.45</ele>
        <time>2015-01-03T09:48:38Z</time>
      </trkpt>
      <trkpt lat="44.13442" lon="0.53356">
        <ele>143.37</ele>
        <time>2015-01-03T09:49:01Z</time>
      </trkpt>
      <trkpt lat="44.13412" lon="0.53358">
        <ele>140.49</ele>
        <time>2015-01-03T09:49:24Z</time>
      </trkpt>
      <trkpt lat="44.13386" lon="0.53357">
        <ele>139.05</ele>
        <time>2015-01-03T09:49:44Z</time>
      </trkpt>
      <trkpt lat="44.13364" lon="0.53353">
        <ele>139.05</ele>
        <time>2015-01-03T09:50:01Z</time>
      </trkpt>
      <trkpt lat="44.13337" lon="0.53346">
        <ele>136.16</ele>
        <time>2015-01-03T09:50:22Z</time>
      </trkpt>
      <trkpt lat="44.13313" lon="0.53339">
        <ele>135.2</ele>
        <time>2015-01-03T09:50:41Z</time>
      </trkpt>
      <trkpt lat="44.13288" lon="0.53325">
        <ele>135.2</ele>
        <time>2015-01-03T09:51:01Z</time>
      </trkpt>
      <trkpt lat="44.13256" lon="0.53303">
        <ele>134.24</ele>
        <time>2015-01-03T09:51:24Z</time>
      </trkpt>
      <trkpt lat="44.1323" lon="0.53282">
        <ele>132.32</ele>
        <time>2015-01-03T09:51:47Z</time>
      </trkpt>
      <trkpt lat="44.13208" lon="0.53262">
        <ele>129.92</ele>
        <time>2015-01-03T09:52:06Z</time>
      </trkpt>
      <trkpt lat="44.13186" lon="0.53244">
        <ele>128.95</ele>
        <time>2015-01-03T09:52:25Z</time>
      </trkpt>
      <trkpt lat="44.13185" lon="0.53242">
        <ele>128.47</ele>
        <time>2015-01-03T09:52:27Z</time>
      </trkpt>
      <trkpt lat="44.13192" lon="0.53236">
        <ele>127.99</ele>
        <time>2015-01-03T09:52:43Z</time>
      </trkpt>
      <trkpt lat="44.13192" lon="0.53238">
        <ele>127.51</ele>
        <time>2015-01-03T09:53:21Z</time>
      </trkpt>
      <trkpt lat="44.13163" lon="0.53235">
        <ele>125.59</ele>
        <time>2015-01-03T09:53:42Z</time>
      </trkpt>
      <trkpt lat="44.13138" lon="0.53241">
        <ele>125.11</ele>
        <time>2015-01-03T09:54:00Z</time>
      </trkpt>
      <trkpt lat="44.13109" lon="0.53248">
        <ele>124.63</ele>
        <time>2015-01-03T09:54:20Z</time>
      </trkpt>
      <trkpt lat="44.13084" lon="0.53256">
        <ele>124.63</ele>
        <time>2015-01-03T09:54:39Z</time>
      </trkpt>
      <trkpt lat="44.13059" lon="0.53263">
        <ele>124.15</ele>
        <time>2015-01-03T09:54:58Z</time>
      </trkpt>
      <trkpt lat="44.13031" lon="0.5327">
        <ele>122.22</ele>
        <time>2015-01-03T09:55:18Z</time>
      </trkpt>
      <trkpt lat="44.13004" lon="0.53277">
        <ele>122.22</ele>
        <time>2015-01-03T09:55:38Z</time>
      </trkpt>
      <trkpt lat="44.12973" lon="0.53286">
        <ele>120.3</ele>
        <time>2015-01-03T09:56:01Z</time>
      </trkpt>
      <trkpt lat="44.12942" lon="0.53294">
        <ele>118.86</ele>
        <time>2015-01-03T09:56:24Z</time>
      </trkpt>
      <trkpt lat="44.12912" lon="0.53301">
        <ele>118.86</ele>
        <time>2015-01-03T09:56:45Z</time>
      </trkpt>
      <trkpt lat="44.12885" lon="0.53308">
        <ele>116.46</ele>
        <time>2015-01-03T09:57:04Z</time>
      </trkpt>
      <trkpt lat="44.12864" lon="0.53317">
        <ele>115.5</ele>
        <time>2015-01-03T09:57:20Z</time>
      </trkpt>
      <trkpt lat="44.12835" lon="0.5333">
        <ele>115.98</ele>
        <time>2015-01-03T09:57:41Z</time>
      </trkpt>
      <trkpt lat="44.12828" lon="0.53359">
        <ele>115.98</ele>
        <time>2015-01-03T09:57:57Z</time>
      </trkpt>
      <trkpt lat="44.1282" lon="0.53385">
        <ele>116.94</ele>
        <time>2015-01-03T09:58:11Z</time>
      </trkpt>
      <trkpt lat="44.12813" lon="0.53414">
        <ele>118.86</ele>
        <time>2015-01-03T09:58:27Z</time>
      </trkpt>
      <trkpt lat="44.12803" lon="0.53447">
        <ele>118.86</ele>
        <time>2015-01-03T09:58:46Z</time>
      </trkpt>
      <trkpt lat="44.12794" lon="0.5348">
        <ele>119.82</ele>
        <time>2015-01-03T09:59:05Z</time>
      </trkpt>
      <trkpt lat="44.12786" lon="0.53513">
        <ele>121.26</ele>
        <time>2015-01-03T09:59:24Z</time>
      </trkpt>
      <trkpt lat="44.12777" lon="0.53534">
        <ele>123.67</ele>
        <time>2015-01-03T09:59:40Z</time>
      </trkpt>
      <trkpt lat="44.12767" lon="0.53559">
        <ele>124.15</ele>
        <time>2015-01-03T09:59:59Z</time>
      </trkpt>
      <trkpt lat="44.12763" lon="0.53577">
        <ele>124.15</ele>
        <time>2015-01-03T10:00:12Z</time>
      </trkpt>
      <trkpt lat="44.12756" lon="0.53606">
        <ele>125.59</ele>
        <time>2015-01-03T10:00:30Z</time>
      </trkpt>
      <trkpt lat="44.12749" lon="0.53634">
        <ele>126.55</ele>
        <time>2015-01-03T10:00:49Z</time>
      </trkpt>
      <trkpt lat="44.12744" lon="0.53658">
        <ele>127.99</ele>
        <time>2015-01-03T10:01:03Z</time>
      </trkpt>
      <trkpt lat="44.12741" lon="0.53679">
        <ele>127.99</ele>
        <time>2015-01-03T10:01:18Z</time>
      </trkpt>
      <trkpt lat="44.1274" lon="0.53702">
        <ele>128.47</ele>
        <time>2015-01-03T10:01:33Z</time>
      </trkpt>
      <trkpt lat="44.12736" lon="0.53727">
        <ele>128.47</ele>
        <time>2015-01-03T10:01:49Z</time>
      </trkpt>
      <trkpt lat="44.12736" lon="0.53749">
        <ele>128.95</ele>
        <time>2015-01-03T10:02:02Z</time>
      </trkpt>
      <trkpt lat="44.12733" lon="0.53778">
        <ele>130.88</ele>
        <time>2015-01-03T10:02:19Z</time>
      </trkpt>
      <trkpt lat="44.12729" lon="0.53804">
        <ele>132.8</ele>
        <time>2015-01-03T10:02:35Z</time>
      </trkpt>
      <trkpt lat="44.12725" lon="0.53831">
        <ele>135.2</ele>
        <time>2015-01-03T10:02:54Z</time>
      </trkpt>
      <trkpt lat="44.1272" lon="0.53859">
        <ele>137.13</ele>
        <time>2015-01-03T10:03:12Z</time>
      </trkpt>
      <trkpt lat="44.12716" lon="0.53887">
        <ele>137.61</ele>
        <time>2015-01-03T10:03:29Z</time>
      </trkpt>
      <trkpt lat="44.12709" lon="0.53918">
        <ele>138.09</ele>
        <time>2015-01-03T10:03:49Z</time>
      </trkpt>
      <trkpt lat="44.12704" lon="0.53944">
        <ele>139.05</ele>
        <time>2015-01-03T10:04:05Z</time>
      </trkpt>
      <trkpt lat="44.12699" lon="0.53967">
        <ele>140.01</ele>
        <time>2015-01-03T10:04:20Z</time>
      </trkpt>
      <trkpt lat="44.12694" lon="0.53996">
        <ele>140.49</ele>
        <time>2015-01-03T10:04:39Z</time>
      </trkpt>
      <trkpt lat="44.12689" lon="0.5402">
        <ele>142.41</ele>
        <time>2015-01-03T10:04:55Z</time>
      </trkpt>
      <trkpt lat="44.12683" lon="0.54046">
        <ele>143.85</ele>
        <time>2015-01-03T10:05:13Z</time>
      </trkpt>
      <trkpt lat="44.12677" lon="0.54074">
        <ele>145.78</ele>
        <time>2015-01-03T10:05:31Z</time>
      </trkpt>
      <trkpt lat="44.12674" lon="0.54089">
        <ele>145.3</ele>
        <time>2015-01-03T10:05:41Z</time>
      </trkpt>
      <trkpt lat="44.12669" lon="0.54114">
        <ele>145.3</ele>
        <time>2015-01-03T10:05:58Z</time>
      </trkpt>
      <trkpt lat="44.12664" lon="0.54127">
        <ele>144.82</ele>
        <time>2015-01-03T10:06:07Z</time>
      </trkpt>
      <trkpt lat="44.12657" lon="0.54155">
        <ele>143.85</ele>
        <time>2015-01-03T10:06:24Z</time>
      </trkpt>
      <trkpt lat="44.12647" lon="0.54187">
        <ele>141.93</ele>
        <time>2015-01-03T10:06:43Z</time>
      </trkpt>
      <trkpt lat="44.12637" lon="0.54211">
        <ele>141.93</ele>
        <time>2015-01-03T10:07:00Z</time>
      </trkpt>
      <trkpt lat="44.12632" lon="0.54216">
        <ele>141.93</ele>
        <time>2015-01-03T10:07:05Z</time>
      </trkpt>
      <trkpt lat="44.12625" lon="0.54216">
        <ele>141.93</ele>
        <time>2015-01-03T10:07:11Z</time>
      </trkpt>
      <trkpt lat="44.12609" lon="0.54205">
        <ele>143.37</ele>
        <time>2015-01-03T10:07:27Z</time>
      </trkpt>
      <trkpt lat="44.12591" lon="0.54197">
        <ele>144.82</ele>
        <time>2015-01-03T10:07:42Z</time>
      </trkpt>
      <trkpt lat="44.1259" lon="0.54196">
        <ele>144.82</ele>
        <time>2015-01-03T10:07:43Z</time>
      </trkpt>
      <trkpt lat="44.12585" lon="0.54195">
        <ele>145.3</ele>
        <time>2015-01-03T10:07:47Z</time>
      </trkpt>
      <trkpt lat="44.1258" lon="0.54198">
        <ele>146.74</ele>
        <time>2015-01-03T10:07:51Z</time>
      </trkpt>
      <trkpt lat="44.12567" lon="0.54222">
        <ele>146.26</ele>
        <time>2015-01-03T10:08:08Z</time>
      </trkpt>
      <trkpt lat="44.12556" lon="0.54246">
        <ele>145.3</ele>
        <time>2015-01-03T10:08:24Z</time>
      </trkpt>
      <trkpt lat="44.12551" lon="0.54257">
        <ele>144.82</ele>
        <time>2015-01-03T10:08:31Z</time>
      </trkpt>
      <trkpt lat="44.12545" lon="0.5427">
        <ele>144.82</ele>
        <time>2015-01-03T10:08:39Z</time>
      </trkpt>
      <trkpt lat="44.12541" lon="0.54282">
        <ele>145.3</ele>
        <time>2015-01-03T10:08:56Z</time>
      </trkpt>
      <trkpt lat="44.1254" lon="0.54283">
        <ele>145.3</ele>
        <time>2015-01-03T10:08:57Z</time>
      </trkpt>
      <trkpt lat="44.1253" lon="0.54287">
        <ele>145.78</ele>
        <time>2015-01-03T10:09:06Z</time>
      </trkpt>
      <trkpt lat="44.12505" lon="0.5428">
        <ele>146.74</ele>
        <time>2015-01-03T10:09:26Z</time>
      </trkpt>
      <trkpt lat="44.12494" lon="0.5429">
        <ele>148.66</ele>
        <time>2015-01-03T10:09:39Z</time>
      </trkpt>
      <trkpt lat="44.12479" lon="0.5431">
        <ele>150.1</ele>
        <time>2015-01-03T10:09:55Z</time>
      </trkpt>
      <trkpt lat="44.12465" lon="0.54333">
        <ele>150.1</ele>
        <time>2015-01-03T10:10:13Z</time>
      </trkpt>
      <trkpt lat="44.1245" lon="0.5436">
        <ele>149.62</ele>
        <time>2015-01-03T10:10:30Z</time>
      </trkpt>
      <trkpt lat="44.12426" lon="0.54385">
        <ele>149.62</ele>
        <time>2015-01-03T10:10:51Z</time>
      </trkpt>
      <trkpt lat="44.12404" lon="0.54403">
        <ele>150.1</ele>
        <time>2015-01-03T10:11:09Z</time>
      </trkpt>
      <trkpt lat="44.1238" lon="0.54424">
        <ele>150.58</ele>
        <time>2015-01-03T10:11:30Z</time>
      </trkpt>
      <trkpt lat="44.12367" lon="0.54434">
        <ele>149.62</ele>
        <time>2015-01-03T10:11:46Z</time>
      </trkpt>
      <trkpt lat="44.12366" lon="0.54433">
        <ele>150.1</ele>
        <time>2015-01-03T10:11:59Z</time>
      </trkpt>
      <trkpt lat="44.12366" lon="0.54434">
        <ele>149.62</ele>
        <time>2015-01-03T10:12:13Z</time>
      </trkpt>
      <trkpt lat="44.12366" lon="0.54435">
        <ele>150.58</ele>
        <time>2015-01-03T10:12:47Z</time>
      </trkpt>
      <trkpt lat="44.12365" lon="0.54433">
        <ele>152.03</ele>
        <time>2015-01-03T10:13:31Z</time>
      </trkpt>
      <trkpt lat="44.12368" lon="0.54435">
        <ele>152.03</ele>
        <time>2015-01-03T10:14:15Z</time>
      </trkpt>
      <trkpt lat="44.12369" lon="0.54434">
        <ele>152.99</ele>
        <time>2015-01-03T10:15:01Z</time>
      </trkpt>
      <trkpt lat="44.12367" lon="0.54433">
        <ele>151.06</ele>
        <time>2015-01-03T10:15:49Z</time>
      </trkpt>
      <trkpt lat="44.12366" lon="0.54431">
        <ele>153.95</ele>
        <time>2015-01-03T10:16:33Z</time>
      </trkpt>
      <trkpt lat="44.12367" lon="0.54434">
        <ele>152.99</ele>
        <time>2015-01-03T10:17:25Z</time>
      </trkpt>
      <trkpt lat="44.12367" lon="0.54433">
        <ele>151.54</ele>
        <time>2015-01-03T10:17:51Z</time>
      </trkpt>
      <trkpt lat="44.12368" lon="0.54432">
        <ele>151.06</ele>
        <time>2015-01-03T10:18:17Z</time>
      </trkpt>
      <trkpt lat="44.12367" lon="0.54432">
        <ele>151.06</ele>
        <time>2015-01-03T10:18:59Z</time>
      </trkpt>
      <trkpt lat="44.12366" lon="0.54432">
        <ele>152.03</ele>
        <time>2015-01-03T10:19:33Z</time>
      </trkpt>
      <trkpt lat="44.12365" lon="0.5443">
        <ele>154.91</ele>
        <time>2015-01-03T10:20:15Z</time>
      </trkpt>
      <trkpt lat="44.12366" lon="0.54433">
        <ele>154.91</ele>
        <time>2015-01-03T10:20:42Z</time>
      </trkpt>
      <trkpt lat="44.12365" lon="0.54434">
        <ele>153.47</ele>
        <time>2015-01-03T10:20:58Z</time>
      </trkpt>
      <trkpt lat="44.12363" lon="0.54437">
        <ele>151.06</ele>
        <time>2015-01-03T10:21:23Z</time>
      </trkpt>
      <trkpt lat="44.12363" lon="0.54437">
        <ele>149.62</ele>
        <time>2015-01-03T10:21:45Z</time>
      </trkpt>
      <trkpt lat="44.12362" lon="0.5444">
        <ele>149.14</ele>
        <time>2015-01-03T10:21:55Z</time>
      </trkpt>
      <trkpt lat="44.12361" lon="0.54442">
        <ele>149.14</ele>
        <time>2015-01-03T10:21:57Z</time>
      </trkpt>
      <trkpt lat="44.1235" lon="0.54469">
        <ele>147.7</ele>
        <time>2015-01-03T10:22:16Z</time>
      </trkpt>
      <trkpt lat="44.12342" lon="0.54502">
        <ele>146.26</ele>
        <time>2015-01-03T10:22:36Z</time>
      </trkpt>
      <trkpt lat="44.12332" lon="0.54535">
        <ele>145.3</ele>
        <time>2015-01-03T10:22:57Z</time>
      </trkpt>
      <trkpt lat="44.12322" lon="0.54567">
        <ele>140.97</ele>
        <time>2015-01-03T10:23:16Z</time>
      </trkpt>
      <trkpt lat="44.12315" lon="0.54607">
        <ele>137.61</ele>
        <time>2015-01-03T10:23:39Z</time>
      </trkpt>
      <trkpt lat="44.12307" lon="0.54643">
        <ele>133.28</ele>
        <time>2015-01-03T10:23:59Z</time>
      </trkpt>
      <trkpt lat="44.12305" lon="0.54668">
        <ele>133.76</ele>
        <time>2015-01-03T10:24:16Z</time>
      </trkpt>
      <trkpt lat="44.12302" lon="0.54697">
        <ele>132.32</ele>
        <time>2015-01-03T10:24:33Z</time>
      </trkpt>
      <trkpt lat="44.12294" lon="0.54731">
        <ele>127.51</ele>
        <time>2015-01-03T10:24:52Z</time>
      </trkpt>
      <trkpt lat="44.1229" lon="0.54753">
        <ele>125.11</ele>
        <time>2015-01-03T10:25:07Z</time>
      </trkpt>
      <trkpt lat="44.12287" lon="0.54755">
        <ele>126.07</ele>
        <time>2015-01-03T10:25:29Z</time>
      </trkpt>
      <trkpt lat="44.12286" lon="0.5477">
        <ele>124.63</ele>
        <time>2015-01-03T10:25:45Z</time>
      </trkpt>
      <trkpt lat="44.12281" lon="0.54801">
        <ele>125.11</ele>
        <time>2015-01-03T10:26:03Z</time>
      </trkpt>
      <trkpt lat="44.12276" lon="0.54836">
        <ele>126.55</ele>
        <time>2015-01-03T10:26:22Z</time>
      </trkpt>
      <trkpt lat="44.1227" lon="0.5487">
        <ele>125.11</ele>
        <time>2015-01-03T10:26:41Z</time>
      </trkpt>
      <trkpt lat="44.12265" lon="0.54899">
        <ele>123.19</ele>
        <time>2015-01-03T10:26:58Z</time>
      </trkpt>
      <trkpt lat="44.12257" lon="0.54929">
        <ele>119.82</ele>
        <time>2015-01-03T10:27:15Z</time>
      </trkpt>
      <trkpt lat="44.12242" lon="0.54951">
        <ele>120.78</ele>
        <time>2015-01-03T10:27:31Z</time>
      </trkpt>
      <trkpt lat="44.12234" lon="0.54958">
        <ele>121.26</ele>
        <time>2015-01-03T10:27:37Z</time>
      </trkpt>
      <trkpt lat="44.12219" lon="0.5498">
        <ele>121.74</ele>
        <time>2015-01-03T10:27:54Z</time>
      </trkpt>
      <trkpt lat="44.12206" lon="0.55">
        <ele>122.22</ele>
        <time>2015-01-03T10:28:10Z</time>
      </trkpt>
      <trkpt lat="44.12192" lon="0.55019">
        <ele>126.07</ele>
        <time>2015-01-03T10:28:26Z</time>
      </trkpt>
      <trkpt lat="44.12175" lon="0.55039">
        <ele>127.51</ele>
        <time>2015-01-03T10:28:43Z</time>
      </trkpt>
      <trkpt lat="44.12164" lon="0.55064">
        <ele>127.51</ele>
        <time>2015-01-03T10:29:00Z</time>
      </trkpt>
      <trkpt lat="44.12153" lon="0.55084">
        <ele>128.47</ele>
        <time>2015-01-03T10:29:14Z</time>
      </trkpt>
      <trkpt lat="44.12141" lon="0.5511">
        <ele>130.4</ele>
        <time>2015-01-03T10:29:32Z</time>
      </trkpt>
      <trkpt lat="44.12128" lon="0.55139">
        <ele>132.8</ele>
        <time>2015-01-03T10:29:51Z</time>
      </trkpt>
      <trkpt lat="44.12113" lon="0.55167">
        <ele>137.13</ele>
        <time>2015-01-03T10:30:12Z</time>
      </trkpt>
      <trkpt lat="44.121" lon="0.55196">
        <ele>140.01</ele>
        <time>2015-01-03T10:30:33Z</time>
      </trkpt>
      <trkpt lat="44.12088" lon="0.55223">
        <ele>140.49</ele>
        <time>2015-01-03T10:30:51Z</time>
      </trkpt>
      <trkpt lat="44.12078" lon="0.55245">
        <ele>142.41</ele>
        <time>2015-01-03T10:31:08Z</time>
      </trkpt>
      <trkpt lat="44.12066" lon="0.55274">
        <ele>142.41</ele>
        <time>2015-01-03T10:31:28Z</time>
      </trkpt>
      <trkpt lat="44.12054" lon="0.55309">
        <ele>141.93</ele>
        <time>2015-01-03T10:31:48Z</time>
      </trkpt>
      <trkpt lat="44.12044" lon="0.55339">
        <ele>139.05</ele>
        <time>2015-01-03T10:32:06Z</time>
      </trkpt>
      <trkpt lat="44.12033" lon="0.55373">
        <ele>138.57</ele>
        <time>2015-01-03T10:32:27Z</time>
      </trkpt>
      <trkpt lat="44.12023" lon="0.55403">
        <ele>138.57</ele>
        <time>2015-01-03T10:32:46Z</time>
      </trkpt>
      <trkpt lat="44.12014" lon="0.55435">
        <ele>138.57</ele>
        <time>2015-01-03T10:33:05Z</time>
      </trkpt>
      <trkpt lat="44.12003" lon="0.55467">
        <ele>140.01</ele>
        <time>2015-01-03T10:33:25Z</time>
      </trkpt>
      <trkpt lat="44.11993" lon="0.55495">
        <ele>140.49</ele>
        <time>2015-01-03T10:33:42Z</time>
      </trkpt>
      <trkpt lat="44.11982" lon="0.55532">
        <ele>140.97</ele>
        <time>2015-01-03T10:34:04Z</time>
      </trkpt>
      <trkpt lat="44.11976" lon="0.55568">
        <ele>141.45</ele>
        <time>2015-01-03T10:34:25Z</time>
      </trkpt>
      <trkpt lat="44.11974" lon="0.55592">
        <ele>141.93</ele>
        <time>2015-01-03T10:34:40Z</time>
      </trkpt>
      <trkpt lat="44.11975" lon="0.55622">
        <ele>140.49</ele>
        <time>2015-01-03T10:34:58Z</time>
      </trkpt>
      <trkpt lat="44.11974" lon="0.55649">
        <ele>138.57</ele>
        <time>2015-01-03T10:35:13Z</time>
      </trkpt>
      <trkpt lat="44.11974" lon="0.55678">
        <ele>137.61</ele>
        <time>2015-01-03T10:35:29Z</time>
      </trkpt>
      <trkpt lat="44.11973" lon="0.5569">
        <ele>139.53</ele>
        <time>2015-01-03T10:35:36Z</time>
      </trkpt>
      <trkpt lat="44.11966" lon="0.55711">
        <ele>137.13</ele>
        <time>2015-01-03T10:35:51Z</time>
      </trkpt>
      <trkpt lat="44.11957" lon="0.5573">
        <ele>134.24</ele>
        <time>2015-01-03T10:36:04Z</time>
      </trkpt>
      <trkpt lat="44.11943" lon="0.55754">
        <ele>133.28</ele>
        <time>2015-01-03T10:36:20Z</time>
      </trkpt>
      <trkpt lat="44.11937" lon="0.5576">
        <ele>131.84</ele>
        <time>2015-01-03T10:36:25Z</time>
      </trkpt>
      <trkpt lat="44.11933" lon="0.55763">
        <ele>131.36</ele>
        <time>2015-01-03T10:36:29Z</time>
      </trkpt>
      <trkpt lat="44.11922" lon="0.55758">
        <ele>132.32</ele>
        <time>2015-01-03T10:36:36Z</time>
      </trkpt>
      <trkpt lat="44.11913" lon="0.55747">
        <ele>130.88</ele>
        <time>2015-01-03T10:36:45Z</time>
      </trkpt>
      <trkpt lat="44.11909" lon="0.5574">
        <ele>130.88</ele>
        <time>2015-01-03T10:36:50Z</time>
      </trkpt>
      <trkpt lat="44.1189" lon="0.55719">
        <ele>130.4</ele>
        <time>2015-01-03T10:37:10Z</time>
      </trkpt>
      <trkpt lat="44.11875" lon="0.5571">
        <ele>130.4</ele>
        <time>2015-01-03T10:37:24Z</time>
      </trkpt>
      <trkpt lat="44.1187" lon="0.55711">
        <ele>130.4</ele>
        <time>2015-01-03T10:37:29Z</time>
      </trkpt>
      <trkpt lat="44.11862" lon="0.55719">
        <ele>132.32</ele>
        <time>2015-01-03T10:37:40Z</time>
      </trkpt>
      <trkpt lat="44.11851" lon="0.55737">
        <ele>134.72</ele>
        <time>2015-01-03T10:37:56Z</time>
      </trkpt>
      <trkpt lat="44.11841" lon="0.55758">
        <ele>134.72</ele>
        <time>2015-01-03T10:38:12Z</time>
      </trkpt>
      <trkpt lat="44.11833" lon="0.55783">
        <ele>133.76</ele>
        <time>2015-01-03T10:38:30Z</time>
      </trkpt>
      <trkpt lat="44.11824" lon="0.55809">
        <ele>135.2</ele>
        <time>2015-01-03T10:38:47Z</time>
      </trkpt>
      <trkpt lat="44.11814" lon="0.55828">
        <ele>134.72</ele>
        <time>2015-01-03T10:39:03Z</time>
      </trkpt>
      <trkpt lat="44.11802" lon="0.55845">
        <ele>135.68</ele>
        <time>2015-01-03T10:39:19Z</time>
      </trkpt>
      <trkpt lat="44.11788" lon="0.55867">
        <ele>136.64</ele>
        <time>2015-01-03T10:39:36Z</time>
      </trkpt>
      <trkpt lat="44.11775" lon="0.55889">
        <ele>137.13</ele>
        <time>2015-01-03T10:39:53Z</time>
      </trkpt>
      <trkpt lat="44.11761" lon="0.55912">
        <ele>139.05</ele>
        <time>2015-01-03T10:40:10Z</time>
      </trkpt>
      <trkpt lat="44.11749" lon="0.55928">
        <ele>139.53</ele>
        <time>2015-01-03T10:40:24Z</time>
      </trkpt>
      <trkpt lat="44.11744" lon="0.55936">
        <ele>140.49</ele>
        <time>2015-01-03T10:40:31Z</time>
      </trkpt>
      <trkpt lat="44.11742" lon="0.55938">
        <ele>140.97</ele>
        <time>2015-01-03T10:40:34Z</time>
      </trkpt>
      <trkpt lat="44.11726" lon="0.55964">
        <ele>143.37</ele>
        <time>2015-01-03T10:40:53Z</time>
      </trkpt>
      <trkpt lat="44.11722" lon="0.55971">
        <ele>143.37</ele>
        <time>2015-01-03T10:41:06Z</time>
      </trkpt>
      <trkpt lat="44.11713" lon="0.55988">
        <ele>143.37</ele>
        <time>2015-01-03T10:41:20Z</time>
      </trkpt>
      <trkpt lat="44.11702" lon="0.56003">
        <ele>144.82</ele>
        <time>2015-01-03T10:41:36Z</time>
      </trkpt>
      <trkpt lat="44.11699" lon="0.56009">
        <ele>144.82</ele>
        <time>2015-01-03T10:41:41Z</time>
      </trkpt>
      <trkpt lat="44.11686" lon="0.56027">
        <ele>144.82</ele>
        <time>2015-01-03T10:41:57Z</time>
      </trkpt>
      <trkpt lat="44.11678" lon="0.56038">
        <ele>146.26</ele>
        <time>2015-01-03T10:42:09Z</time>
      </trkpt>
      <trkpt lat="44.11676" lon="0.56042">
        <ele>146.74</ele>
        <time>2015-01-03T10:42:12Z</time>
      </trkpt>
      <trkpt lat="44.11667" lon="0.56057">
        <ele>148.66</ele>
        <time>2015-01-03T10:42:24Z</time>
      </trkpt>
      <trkpt lat="44.11655" lon="0.56078">
        <ele>150.1</ele>
        <time>2015-01-03T10:42:42Z</time>
      </trkpt>
      <trkpt lat="44.1164" lon="0.561">
        <ele>151.54</ele>
        <time>2015-01-03T10:43:01Z</time>
      </trkpt>
      <trkpt lat="44.11628" lon="0.56119">
        <ele>154.43</ele>
        <time>2015-01-03T10:43:19Z</time>
      </trkpt>
      <trkpt lat="44.11614" lon="0.56142">
        <ele>156.35</ele>
        <time>2015-01-03T10:43:38Z</time>
      </trkpt>
      <trkpt lat="44.11612" lon="0.56145">
        <ele>156.83</ele>
        <time>2015-01-03T10:43:41Z</time>
      </trkpt>
      <trkpt lat="44.11599" lon="0.56166">
        <ele>159.24</ele>
        <time>2015-01-03T10:44:01Z</time>
      </trkpt>
      <trkpt lat="44.1158" lon="0.56194">
        <ele>161.64</ele>
        <time>2015-01-03T10:44:24Z</time>
      </trkpt>
      <trkpt lat="44.1157" lon="0.56211">
        <ele>162.6</ele>
        <time>2015-01-03T10:44:42Z</time>
      </trkpt>
      <trkpt lat="44.1156" lon="0.56224">
        <ele>161.16</ele>
        <time>2015-01-03T10:44:56Z</time>
      </trkpt>
      <trkpt lat="44.11558" lon="0.56249">
        <ele>164.04</ele>
        <time>2015-01-03T10:45:12Z</time>
      </trkpt>
      <trkpt lat="44.11562" lon="0.5628">
        <ele>165</ele>
        <time>2015-01-03T10:45:31Z</time>
      </trkpt>
      <trkpt lat="44.11566" lon="0.56313">
        <ele>164.52</ele>
        <time>2015-01-03T10:45:50Z</time>
      </trkpt>
      <trkpt lat="44.11569" lon="0.56347">
        <ele>164.04</ele>
        <time>2015-01-03T10:46:09Z</time>
      </trkpt>
      <trkpt lat="44.11571" lon="0.56374">
        <ele>160.68</ele>
        <time>2015-01-03T10:46:23Z</time>
      </trkpt>
      <trkpt lat="44.11572" lon="0.56403">
        <ele>156.83</ele>
        <time>2015-01-03T10:46:40Z</time>
      </trkpt>
      <trkpt lat="44.11571" lon="0.56427">
        <ele>152.03</ele>
        <time>2015-01-03T10:46:56Z</time>
      </trkpt>
      <trkpt lat="44.11575" lon="0.56455">
        <ele>148.66</ele>
        <time>2015-01-03T10:47:13Z</time>
      </trkpt>
      <trkpt lat="44.11579" lon="0.56486">
        <ele>143.85</ele>
        <time>2015-01-03T10:47:31Z</time>
      </trkpt>
      <trkpt lat="44.11585" lon="0.56512">
        <ele>141.45</ele>
        <time>2015-01-03T10:47:46Z</time>
      </trkpt>
      <trkpt lat="44.11593" lon="0.5654">
        <ele>140.97</ele>
        <time>2015-01-03T10:48:02Z</time>
      </trkpt>
      <trkpt lat="44.11601" lon="0.56573">
        <ele>140.97</ele>
        <time>2015-01-03T10:48:23Z</time>
      </trkpt>
      <trkpt lat="44.11607" lon="0.56597">
        <ele>135.68</ele>
        <time>2015-01-03T10:48:39Z</time>
      </trkpt>
      <trkpt lat="44.11607" lon="0.56599">
        <ele>135.68</ele>
        <time>2015-01-03T10:48:40Z</time>
      </trkpt>
      <trkpt lat="44.11609" lon="0.56631">
        <ele>132.8</ele>
        <time>2015-01-03T10:48:57Z</time>
      </trkpt>
      <trkpt lat="44.11611" lon="0.56663">
        <ele>129.92</ele>
        <time>2015-01-03T10:49:16Z</time>
      </trkpt>
      <trkpt lat="44.11608" lon="0.56671">
        <ele>128.47</ele>
        <time>2015-01-03T10:49:21Z</time>
      </trkpt>
      <trkpt lat="44.116" lon="0.56692">
        <ele>127.99</ele>
        <time>2015-01-03T10:49:35Z</time>
      </trkpt>
      <trkpt lat="44.11593" lon="0.56717">
        <ele>127.03</ele>
        <time>2015-01-03T10:49:51Z</time>
      </trkpt>
      <trkpt lat="44.11589" lon="0.56746">
        <ele>126.55</ele>
        <time>2015-01-03T10:50:07Z</time>
      </trkpt>
      <trkpt lat="44.1159" lon="0.56783">
        <ele>126.07</ele>
        <time>2015-01-03T10:50:27Z</time>
      </trkpt>
      <trkpt lat="44.11588" lon="0.56818">
        <ele>124.63</ele>
        <time>2015-01-03T10:50:47Z</time>
      </trkpt>
      <trkpt lat="44.11585" lon="0.56847">
        <ele>122.71</ele>
        <time>2015-01-03T10:51:04Z</time>
      </trkpt>
      <trkpt lat="44.11582" lon="0.56881">
        <ele>120.78</ele>
        <time>2015-01-03T10:51:23Z</time>
      </trkpt>
      <trkpt lat="44.11578" lon="0.56907">
        <ele>116.46</ele>
        <time>2015-01-03T10:51:41Z</time>
      </trkpt>
      <trkpt lat="44.11576" lon="0.56936">
        <ele>115.5</ele>
        <time>2015-01-03T10:51:58Z</time>
      </trkpt>
      <trkpt lat="44.11573" lon="0.56957">
        <ele>114.05</ele>
        <time>2015-01-03T10:52:13Z</time>
      </trkpt>
      <trkpt lat="44.11569" lon="0.56981">
        <ele>110.69</ele>
        <time>2015-01-03T10:52:30Z</time>
      </trkpt>
      <trkpt lat="44.11566" lon="0.57008">
        <ele>106.84</ele>
        <time>2015-01-03T10:52:49Z</time>
      </trkpt>
      <trkpt lat="44.1156" lon="0.57043">
        <ele>108.29</ele>
        <time>2015-01-03T10:53:08Z</time>
      </trkpt>
      <trkpt lat="44.1156" lon="0.57048">
        <ele>108.29</ele>
        <time>2015-01-03T10:53:11Z</time>
      </trkpt>
      <trkpt lat="44.1156" lon="0.57072">
        <ele>107.32</ele>
        <time>2015-01-03T10:53:25Z</time>
      </trkpt>
      <trkpt lat="44.11561" lon="0.571">
        <ele>105.88</ele>
        <time>2015-01-03T10:53:42Z</time>
      </trkpt>
      <trkpt lat="44.11564" lon="0.57136">
        <ele>106.84</ele>
        <time>2015-01-03T10:53:59Z</time>
      </trkpt>
      <trkpt lat="44.11567" lon="0.57149">
        <ele>104.92</ele>
        <time>2015-01-03T10:54:08Z</time>
      </trkpt>
      <trkpt lat="44.11578" lon="0.57173">
        <ele>103.96</ele>
        <time>2015-01-03T10:54:25Z</time>
      </trkpt>
      <trkpt lat="44.11591" lon="0.572">
        <ele>103</ele>
        <time>2015-01-03T10:54:43Z</time>
      </trkpt>
      <trkpt lat="44.11597" lon="0.57219">
        <ele>103</ele>
        <time>2015-01-03T10:54:56Z</time>
      </trkpt>
      <trkpt lat="44.11599" lon="0.57228">
        <ele>103</ele>
        <time>2015-01-03T10:55:09Z</time>
      </trkpt>
      <trkpt lat="44.11599" lon="0.57242">
        <ele>103.96</ele>
        <time>2015-01-03T10:55:21Z</time>
      </trkpt>
      <trkpt lat="44.11599" lon="0.57251">
        <ele>103.96</ele>
        <time>2015-01-03T10:55:28Z</time>
      </trkpt>
      <trkpt lat="44.11598" lon="0.57266">
        <ele>103.48</ele>
        <time>2015-01-03T10:55:39Z</time>
      </trkpt>
      <trkpt lat="44.11597" lon="0.57296">
        <ele>104.44</ele>
        <time>2015-01-03T10:55:55Z</time>
      </trkpt>
      <trkpt lat="44.11596" lon="0.57326">
        <ele>103.96</ele>
        <time>2015-01-03T10:56:11Z</time>
      </trkpt>
      <trkpt lat="44.11595" lon="0.57333">
        <ele>104.44</ele>
        <time>2015-01-03T10:56:15Z</time>
      </trkpt>
      <trkpt lat="44.11596" lon="0.57342">
        <ele>104.92</ele>
        <time>2015-01-03T10:56:20Z</time>
      </trkpt>
      <trkpt lat="44.11597" lon="0.57374">
        <ele>106.84</ele>
        <time>2015-01-03T10:56:40Z</time>
      </trkpt>
      <trkpt lat="44.11598" lon="0.57401">
        <ele>107.81</ele>
        <time>2015-01-03T10:56:56Z</time>
      </trkpt>
      <trkpt lat="44.11599" lon="0.57424">
        <ele>107.32</ele>
        <time>2015-01-03T10:57:12Z</time>
      </trkpt>
      <trkpt lat="44.11599" lon="0.57428">
        <ele>106.84</ele>
        <time>2015-01-03T10:57:14Z</time>
      </trkpt>
      <trkpt lat="44.1161" lon="0.5745">
        <ele>104.92</ele>
        <time>2015-01-03T10:57:30Z</time>
      </trkpt>
      <trkpt lat="44.11625" lon="0.57469">
        <ele>102.52</ele>
        <time>2015-01-03T10:57:48Z</time>
      </trkpt>
      <trkpt lat="44.11639" lon="0.57486">
        <ele>103.48</ele>
        <time>2015-01-03T10:58:05Z</time>
      </trkpt>
      <trkpt lat="44.11644" lon="0.57494">
        <ele>103.48</ele>
        <time>2015-01-03T10:58:11Z</time>
      </trkpt>
      <trkpt lat="44.11656" lon="0.57507">
        <ele>103.48</ele>
        <time>2015-01-03T10:58:24Z</time>
      </trkpt>
      <trkpt lat="44.11664" lon="0.57518">
        <ele>102.52</ele>
        <time>2015-01-03T10:58:33Z</time>
      </trkpt>
      <trkpt lat="44.1168" lon="0.57541">
        <ele>101.56</ele>
        <time>2015-01-03T10:58:50Z</time>
      </trkpt>
      <trkpt lat="44.11692" lon="0.57557">
        <ele>100.11</ele>
        <time>2015-01-03T10:59:02Z</time>
      </trkpt>
      <trkpt lat="44.11704" lon="0.57571">
        <ele>98.67</ele>
        <time>2015-01-03T10:59:16Z</time>
      </trkpt>
      <trkpt lat="44.11716" lon="0.57601">
        <ele>96.27</ele>
        <time>2015-01-03T10:59:34Z</time>
      </trkpt>
      <trkpt lat="44.11716" lon="0.57631">
        <ele>98.19</ele>
        <time>2015-01-03T10:59:51Z</time>
      </trkpt>
      <trkpt lat="44.11724" lon="0.57659">
        <ele>100.6</ele>
        <time>2015-01-03T11:00:09Z</time>
      </trkpt>
      <trkpt lat="44.11732" lon="0.57676">
        <ele>99.15</ele>
        <time>2015-01-03T11:00:24Z</time>
      </trkpt>
      <trkpt lat="44.1174" lon="0.57695">
        <ele>93.39</ele>
        <time>2015-01-03T11:00:41Z</time>
      </trkpt>
      <trkpt lat="44.11748" lon="0.57704">
        <ele>91.94</ele>
        <time>2015-01-03T11:00:49Z</time>
      </trkpt>
      <trkpt lat="44.1176" lon="0.57722">
        <ele>91.94</ele>
        <time>2015-01-03T11:01:03Z</time>
      </trkpt>
      <trkpt lat="44.11773" lon="0.57745">
        <ele>93.87</ele>
        <time>2015-01-03T11:01:20Z</time>
      </trkpt>
      <trkpt lat="44.11786" lon="0.5777">
        <ele>95.31</ele>
        <time>2015-01-03T11:01:38Z</time>
      </trkpt>
      <trkpt lat="44.11798" lon="0.57797">
        <ele>96.27</ele>
        <time>2015-01-03T11:01:58Z</time>
      </trkpt>
      <trkpt lat="44.11806" lon="0.5782">
        <ele>99.15</ele>
        <time>2015-01-03T11:02:18Z</time>
      </trkpt>
      <trkpt lat="44.11812" lon="0.57836">
        <ele>101.08</ele>
        <time>2015-01-03T11:02:34Z</time>
      </trkpt>
      <trkpt lat="44.1181" lon="0.57848">
        <ele>104.44</ele>
        <time>2015-01-03T11:02:44Z</time>
      </trkpt>
      <trkpt lat="44.11818" lon="0.57863">
        <ele>107.81</ele>
        <time>2015-01-03T11:03:00Z</time>
      </trkpt>
      <trkpt lat="44.11832" lon="0.57854">
        <ele>103.96</ele>
        <time>2015-01-03T11:03:17Z</time>
      </trkpt>
      <trkpt lat="44.11851" lon="0.57846">
        <ele>103.96</ele>
        <time>2015-01-03T11:03:33Z</time>
      </trkpt>
      <trkpt lat="44.11858" lon="0.57845">
        <ele>104.92</ele>
        <time>2015-01-03T11:03:38Z</time>
      </trkpt>
      <trkpt lat="44.11883" lon="0.57855">
        <ele>103</ele>
        <time>2015-01-03T11:04:00Z</time>
      </trkpt>
      <trkpt lat="44.11902" lon="0.57866">
        <ele>103</ele>
        <time>2015-01-03T11:04:17Z</time>
      </trkpt>
      <trkpt lat="44.11925" lon="0.57877">
        <ele>102.52</ele>
        <time>2015-01-03T11:04:34Z</time>
      </trkpt>
      <trkpt lat="44.11946" lon="0.57891">
        <ele>101.08</ele>
        <time>2015-01-03T11:04:53Z</time>
      </trkpt>
      <trkpt lat="44.11966" lon="0.57907">
        <ele>101.08</ele>
        <time>2015-01-03T11:05:11Z</time>
      </trkpt>
      <trkpt lat="44.11986" lon="0.5792">
        <ele>99.15</ele>
        <time>2015-01-03T11:05:29Z</time>
      </trkpt>
      <trkpt lat="44.11994" lon="0.57927">
        <ele>99.63</ele>
        <time>2015-01-03T11:05:36Z</time>
      </trkpt>
      <trkpt lat="44.12018" lon="0.57943">
        <ele>102.52</ele>
        <time>2015-01-03T11:05:56Z</time>
      </trkpt>
      <trkpt lat="44.12035" lon="0.57958">
        <ele>102.04</ele>
        <time>2015-01-03T11:06:13Z</time>
      </trkpt>
      <trkpt lat="44.1205" lon="0.57974">
        <ele>104.92</ele>
        <time>2015-01-03T11:06:29Z</time>
      </trkpt>
      <trkpt lat="44.12064" lon="0.57998">
        <ele>103.96</ele>
        <time>2015-01-03T11:06:46Z</time>
      </trkpt>
      <trkpt lat="44.12066" lon="0.58014">
        <ele>103.96</ele>
        <time>2015-01-03T11:06:55Z</time>
      </trkpt>
      <trkpt lat="44.12054" lon="0.58038">
        <ele>108.77</ele>
        <time>2015-01-03T11:07:12Z</time>
      </trkpt>
      <trkpt lat="44.1204" lon="0.58053">
        <ele>111.65</ele>
        <time>2015-01-03T11:07:28Z</time>
      </trkpt>
      <trkpt lat="44.12017" lon="0.58067">
        <ele>114.53</ele>
        <time>2015-01-03T11:07:47Z</time>
      </trkpt>
      <trkpt lat="44.11994" lon="0.58081">
        <ele>114.05</ele>
        <time>2015-01-03T11:08:08Z</time>
      </trkpt>
      <trkpt lat="44.11972" lon="0.58094">
        <ele>115.5</ele>
        <time>2015-01-03T11:08:28Z</time>
      </trkpt>
      <trkpt lat="44.11952" lon="0.58105">
        <ele>116.46</ele>
        <time>2015-01-03T11:08:46Z</time>
      </trkpt>
      <trkpt lat="44.11932" lon="0.58115">
        <ele>116.94</ele>
        <time>2015-01-03T11:09:05Z</time>
      </trkpt>
      <trkpt lat="44.11913" lon="0.58126">
        <ele>118.38</ele>
        <time>2015-01-03T11:09:23Z</time>
      </trkpt>
      <trkpt lat="44.11891" lon="0.58138">
        <ele>118.86</ele>
        <time>2015-01-03T11:09:42Z</time>
      </trkpt>
      <trkpt lat="44.11869" lon="0.5815">
        <ele>120.78</ele>
        <time>2015-01-03T11:10:04Z</time>
      </trkpt>
      <trkpt lat="44.11852" lon="0.5816">
        <ele>121.26</ele>
        <time>2015-01-03T11:10:21Z</time>
      </trkpt>
      <trkpt lat="44.11835" lon="0.58172">
        <ele>122.22</ele>
        <time>2015-01-03T11:10:38Z</time>
      </trkpt>
      <trkpt lat="44.11828" lon="0.58181">
        <ele>122.22</ele>
        <time>2015-01-03T11:10:49Z</time>
      </trkpt>
      <trkpt lat="44.11829" lon="0.58206">
        <ele>121.26</ele>
        <time>2015-01-03T11:11:06Z</time>
      </trkpt>
      <trkpt lat="44.1183" lon="0.58232">
        <ele>122.71</ele>
        <time>2015-01-03T11:11:24Z</time>
      </trkpt>
      <trkpt lat="44.1183" lon="0.58238">
        <ele>122.71</ele>
        <time>2015-01-03T11:11:28Z</time>
      </trkpt>
      <trkpt lat="44.1183" lon="0.58261">
        <ele>123.67</ele>
        <time>2015-01-03T11:11:44Z</time>
      </trkpt>
      <trkpt lat="44.1183" lon="0.58285">
        <ele>127.99</ele>
        <time>2015-01-03T11:12:01Z</time>
      </trkpt>
      <trkpt lat="44.11828" lon="0.58312">
        <ele>134.72</ele>
        <time>2015-01-03T11:12:19Z</time>
      </trkpt>
      <trkpt lat="44.1183" lon="0.58336">
        <ele>136.64</ele>
        <time>2015-01-03T11:12:37Z</time>
      </trkpt>
      <trkpt lat="44.11829" lon="0.5835">
        <ele>137.61</ele>
        <time>2015-01-03T11:12:47Z</time>
      </trkpt>
      <trkpt lat="44.1183" lon="0.58377">
        <ele>139.05</ele>
        <time>2015-01-03T11:13:05Z</time>
      </trkpt>
      <trkpt lat="44.11833" lon="0.58404">
        <ele>143.85</ele>
        <time>2015-01-03T11:13:24Z</time>
      </trkpt>
      <trkpt lat="44.11833" lon="0.58408">
        <ele>143.85</ele>
        <time>2015-01-03T11:13:27Z</time>
      </trkpt>
      <trkpt lat="44.11838" lon="0.58434">
        <ele>145.3</ele>
        <time>2015-01-03T11:13:47Z</time>
      </trkpt>
      <trkpt lat="44.1184" lon="0.5846">
        <ele>148.18</ele>
        <time>2015-01-03T11:14:02Z</time>
      </trkpt>
      <trkpt lat="44.11842" lon="0.58474">
        <ele>149.14</ele>
        <time>2015-01-03T11:14:14Z</time>
      </trkpt>
      <trkpt lat="44.11844" lon="0.58483">
        <ele>149.14</ele>
        <time>2015-01-03T11:14:19Z</time>
      </trkpt>
      <trkpt lat="44.11851" lon="0.58502">
        <ele>148.66</ele>
        <time>2015-01-03T11:14:35Z</time>
      </trkpt>
      <trkpt lat="44.11856" lon="0.5852">
        <ele>148.18</ele>
        <time>2015-01-03T11:14:49Z</time>
      </trkpt>
      <trkpt lat="44.11862" lon="0.58542">
        <ele>148.18</ele>
        <time>2015-01-03T11:15:06Z</time>
      </trkpt>
      <trkpt lat="44.11867" lon="0.58554">
        <ele>147.7</ele>
        <time>2015-01-03T11:15:16Z</time>
      </trkpt>
      <trkpt lat="44.11868" lon="0.58557">
        <ele>147.7</ele>
        <time>2015-01-03T11:15:18Z</time>
      </trkpt>
      <trkpt lat="44.11872" lon="0.58565">
        <ele>148.18</ele>
        <time>2015-01-03T11:15:25Z</time>
      </trkpt>
      <trkpt lat="44.11874" lon="0.5857">
        <ele>148.66</ele>
        <time>2015-01-03T11:15:29Z</time>
      </trkpt>
      <trkpt lat="44.11879" lon="0.58588">
        <ele>149.14</ele>
        <time>2015-01-03T11:15:44Z</time>
      </trkpt>
      <trkpt lat="44.11885" lon="0.58607">
        <ele>151.54</ele>
        <time>2015-01-03T11:16:01Z</time>
      </trkpt>
      <trkpt lat="44.11893" lon="0.58629">
        <ele>154.91</ele>
        <time>2015-01-03T11:16:20Z</time>
      </trkpt>
      <trkpt lat="44.119" lon="0.58651">
        <ele>157.31</ele>
        <time>2015-01-03T11:16:38Z</time>
      </trkpt>
      <trkpt lat="44.11903" lon="0.58664">
        <ele>159.72</ele>
        <time>2015-01-03T11:16:51Z</time>
      </trkpt>
      <trkpt lat="44.1191" lon="0.58691">
        <ele>163.56</ele>
        <time>2015-01-03T11:17:10Z</time>
      </trkpt>
      <trkpt lat="44.11919" lon="0.5872">
        <ele>166.93</ele>
        <time>2015-01-03T11:17:29Z</time>
      </trkpt>
      <trkpt lat="44.11926" lon="0.58747">
        <ele>169.81</ele>
        <time>2015-01-03T11:17:47Z</time>
      </trkpt>
      <trkpt lat="44.11924" lon="0.58767">
        <ele>169.81</ele>
        <time>2015-01-03T11:18:04Z</time>
      </trkpt>
      <trkpt lat="44.11923" lon="0.58766">
        <ele>168.85</ele>
        <time>2015-01-03T11:18:29Z</time>
      </trkpt>
      <trkpt lat="44.11924" lon="0.58765">
        <ele>168.85</ele>
        <time>2015-01-03T11:18:47Z</time>
      </trkpt>
      <trkpt lat="44.11923" lon="0.58767">
        <ele>167.89</ele>
        <time>2015-01-03T11:19:12Z</time>
      </trkpt>
      <trkpt lat="44.11923" lon="0.58768">
        <ele>169.33</ele>
        <time>2015-01-03T11:19:35Z</time>
      </trkpt>
      <trkpt lat="44.11922" lon="0.58767">
        <ele>167.41</ele>
        <time>2015-01-03T11:19:55Z</time>
      </trkpt>
      <trkpt lat="44.11922" lon="0.58772">
        <ele>166.93</ele>
        <time>2015-01-03T11:20:17Z</time>
      </trkpt>
      <trkpt lat="44.11927" lon="0.5878">
        <ele>167.89</ele>
        <time>2015-01-03T11:20:27Z</time>
      </trkpt>
      <trkpt lat="44.11929" lon="0.58783">
        <ele>167.89</ele>
        <time>2015-01-03T11:20:30Z</time>
      </trkpt>
      <trkpt lat="44.11948" lon="0.58804">
        <ele>168.37</ele>
        <time>2015-01-03T11:20:52Z</time>
      </trkpt>
      <trkpt lat="44.11962" lon="0.58824">
        <ele>166.45</ele>
        <time>2015-01-03T11:21:08Z</time>
      </trkpt>
      <trkpt lat="44.11982" lon="0.5885">
        <ele>166.93</ele>
        <time>2015-01-03T11:21:30Z</time>
      </trkpt>
      <trkpt lat="44.11997" lon="0.5888">
        <ele>168.85</ele>
        <time>2015-01-03T11:21:49Z</time>
      </trkpt>
      <trkpt lat="44.12008" lon="0.58911">
        <ele>171.25</ele>
        <time>2015-01-03T11:22:08Z</time>
      </trkpt>
      <trkpt lat="44.12012" lon="0.5895">
        <ele>170.29</ele>
        <time>2015-01-03T11:22:29Z</time>
      </trkpt>
      <trkpt lat="44.12013" lon="0.5899">
        <ele>170.29</ele>
        <time>2015-01-03T11:22:51Z</time>
      </trkpt>
      <trkpt lat="44.12014" lon="0.59028">
        <ele>168.37</ele>
        <time>2015-01-03T11:23:10Z</time>
      </trkpt>
      <trkpt lat="44.12017" lon="0.59072">
        <ele>169.81</ele>
        <time>2015-01-03T11:23:32Z</time>
      </trkpt>
      <trkpt lat="44.12018" lon="0.59104">
        <ele>170.77</ele>
        <time>2015-01-03T11:23:51Z</time>
      </trkpt>
      <trkpt lat="44.1202" lon="0.59142">
        <ele>170.77</ele>
        <time>2015-01-03T11:24:11Z</time>
      </trkpt>
      <trkpt lat="44.12022" lon="0.59172">
        <ele>170.29</ele>
        <time>2015-01-03T11:24:28Z</time>
      </trkpt>
      <trkpt lat="44.12024" lon="0.59203">
        <ele>168.85</ele>
        <time>2015-01-03T11:24:45Z</time>
      </trkpt>
      <trkpt lat="44.12027" lon="0.59235">
        <ele>168.85</ele>
        <time>2015-01-03T11:25:02Z</time>
      </trkpt>
      <trkpt lat="44.12037" lon="0.59273">
        <ele>169.33</ele>
        <time>2015-01-03T11:25:23Z</time>
      </trkpt>
      <trkpt lat="44.12048" lon="0.59309">
        <ele>166.45</ele>
        <time>2015-01-03T11:25:45Z</time>
      </trkpt>
      <trkpt lat="44.12052" lon="0.59322">
        <ele>165.48</ele>
        <time>2015-01-03T11:25:54Z</time>
      </trkpt>
      <trkpt lat="44.12065" lon="0.59349">
        <ele>163.08</ele>
        <time>2015-01-03T11:26:13Z</time>
      </trkpt>
      <trkpt lat="44.12079" lon="0.59375">
        <ele>161.64</ele>
        <time>2015-01-03T11:26:31Z</time>
      </trkpt>
      <trkpt lat="44.12095" lon="0.59401">
        <ele>159.24</ele>
        <time>2015-01-03T11:26:50Z</time>
      </trkpt>
      <trkpt lat="44.12107" lon="0.59425">
        <ele>160.68</ele>
        <time>2015-01-03T11:27:06Z</time>
      </trkpt>
      <trkpt lat="44.12112" lon="0.5945">
        <ele>162.6</ele>
        <time>2015-01-03T11:27:22Z</time>
      </trkpt>
      <trkpt lat="44.12104" lon="0.59485">
        <ele>165.48</ele>
        <time>2015-01-03T11:27:41Z</time>
      </trkpt>
      <trkpt lat="44.12096" lon="0.59521">
        <ele>167.41</ele>
        <time>2015-01-03T11:28:00Z</time>
      </trkpt>
      <trkpt lat="44.12086" lon="0.59556">
        <ele>165.96</ele>
        <time>2015-01-03T11:28:21Z</time>
      </trkpt>
      <trkpt lat="44.12078" lon="0.59587">
        <ele>165.96</ele>
        <time>2015-01-03T11:28:41Z</time>
      </trkpt>
      <trkpt lat="44.1206" lon="0.59603">
        <ele>164.04</ele>
        <time>2015-01-03T11:28:58Z</time>
      </trkpt>
      <trkpt lat="44.12043" lon="0.59611">
        <ele>165</ele>
        <time>2015-01-03T11:29:13Z</time>
      </trkpt>
      <trkpt lat="44.12019" lon="0.5962">
        <ele>169.33</ele>
        <time>2015-01-03T11:29:30Z</time>
      </trkpt>
      <trkpt lat="44.12015" lon="0.5962">
        <ele>169.81</ele>
        <time>2015-01-03T11:29:34Z</time>
      </trkpt>
      <trkpt lat="44.12003" lon="0.59624">
        <ele>170.77</ele>
        <time>2015-01-03T11:29:44Z</time>
      </trkpt>
      <trkpt lat="44.11986" lon="0.59629">
        <ele>175.58</ele>
        <time>2015-01-03T11:29:58Z</time>
      </trkpt>
      <trkpt lat="44.11966" lon="0.59633">
        <ele>180.87</ele>
        <time>2015-01-03T11:30:16Z</time>
      </trkpt>
      <trkpt lat="44.11949" lon="0.59639">
        <ele>182.79</ele>
        <time>2015-01-03T11:30:31Z</time>
      </trkpt>
      <trkpt lat="44.11943" lon="0.59642">
        <ele>179.9</ele>
        <time>2015-01-03T11:30:36Z</time>
      </trkpt>
      <trkpt lat="44.11942" lon="0.59648">
        <ele>177.02</ele>
        <time>2015-01-03T11:30:40Z</time>
      </trkpt>
      <trkpt lat="44.1194" lon="0.59652">
        <ele>176.54</ele>
        <time>2015-01-03T11:30:42Z</time>
      </trkpt>
      <trkpt lat="44.11941" lon="0.59674">
        <ele>171.25</ele>
        <time>2015-01-03T11:30:59Z</time>
      </trkpt>
      <trkpt lat="44.11938" lon="0.59701">
        <ele>162.6</ele>
        <time>2015-01-03T11:31:15Z</time>
      </trkpt>
      <trkpt lat="44.11931" lon="0.59732">
        <ele>157.31</ele>
        <time>2015-01-03T11:31:33Z</time>
      </trkpt>
      <trkpt lat="44.11924" lon="0.59769">
        <ele>151.54</ele>
        <time>2015-01-03T11:31:53Z</time>
      </trkpt>
      <trkpt lat="44.11919" lon="0.59805">
        <ele>148.18</ele>
        <time>2015-01-03T11:32:14Z</time>
      </trkpt>
      <trkpt lat="44.11916" lon="0.59832">
        <ele>145.78</ele>
        <time>2015-01-03T11:32:30Z</time>
      </trkpt>
      <trkpt lat="44.11905" lon="0.59861">
        <ele>142.89</ele>
        <time>2015-01-03T11:32:47Z</time>
      </trkpt>
      <trkpt lat="44.11897" lon="0.59895">
        <ele>135.2</ele>
        <time>2015-01-03T11:33:07Z</time>
      </trkpt>
      <trkpt lat="44.1189" lon="0.59929">
        <ele>129.92</ele>
        <time>2015-01-03T11:33:27Z</time>
      </trkpt>
      <trkpt lat="44.11884" lon="0.5996">
        <ele>124.63</ele>
        <time>2015-01-03T11:33:46Z</time>
      </trkpt>
      <trkpt lat="44.1188" lon="0.59991">
        <ele>121.26</ele>
        <time>2015-01-03T11:34:05Z</time>
      </trkpt>
      <trkpt lat="44.11876" lon="0.6002">
        <ele>119.34</ele>
        <time>2015-01-03T11:34:23Z</time>
      </trkpt>
      <trkpt lat="44.11872" lon="0.60055">
        <ele>118.86</ele>
        <time>2015-01-03T11:34:44Z</time>
      </trkpt>
      <trkpt lat="44.1187" lon="0.60082">
        <ele>117.42</ele>
        <time>2015-01-03T11:35:00Z</time>
      </trkpt>
      <trkpt lat="44.11869" lon="0.60114">
        <ele>112.61</ele>
        <time>2015-01-03T11:35:19Z</time>
      </trkpt>
      <trkpt lat="44.11867" lon="0.60128">
        <ele>110.21</ele>
        <time>2015-01-03T11:35:27Z</time>
      </trkpt>
      <trkpt lat="44.11867" lon="0.60135">
        <ele>110.21</ele>
        <time>2015-01-03T11:35:31Z</time>
      </trkpt>
      <trkpt lat="44.11859" lon="0.6017">
        <ele>106.84</ele>
        <time>2015-01-03T11:35:53Z</time>
      </trkpt>
      <trkpt lat="44.11855" lon="0.60195">
        <ele>103.96</ele>
        <time>2015-01-03T11:36:08Z</time>
      </trkpt>
      <trkpt lat="44.11851" lon="0.60219">
        <ele>98.19</ele>
        <time>2015-01-03T11:36:25Z</time>
      </trkpt>
      <trkpt lat="44.11851" lon="0.60227">
        <ele>97.23</ele>
        <time>2015-01-03T11:36:30Z</time>
      </trkpt>
      <trkpt lat="44.11852" lon="0.60234">
        <ele>98.19</ele>
        <time>2015-01-03T11:36:34Z</time>
      </trkpt>
      <trkpt lat="44.11856" lon="0.60236">
        <ele>98.19</ele>
        <time>2015-01-03T11:36:39Z</time>
      </trkpt>
      <trkpt lat="44.11882" lon="0.60229">
        <ele>100.6</ele>
        <time>2015-01-03T11:37:03Z</time>
      </trkpt>
      <trkpt lat="44.11907" lon="0.6023">
        <ele>102.04</ele>
        <time>2015-01-03T11:37:26Z</time>
      </trkpt>
      <trkpt lat="44.11932" lon="0.60233">
        <ele>103.96</ele>
        <time>2015-01-03T11:37:46Z</time>
      </trkpt>
      <trkpt lat="44.11962" lon="0.60237">
        <ele>106.84</ele>
        <time>2015-01-03T11:38:08Z</time>
      </trkpt>
      <trkpt lat="44.11985" lon="0.60239">
        <ele>106.84</ele>
        <time>2015-01-03T11:38:26Z</time>
      </trkpt>
      <trkpt lat="44.12012" lon="0.6024">
        <ele>106.36</ele>
        <time>2015-01-03T11:38:48Z</time>
      </trkpt>
      <trkpt lat="44.12034" lon="0.60232">
        <ele>104.44</ele>
        <time>2015-01-03T11:39:06Z</time>
      </trkpt>
      <trkpt lat="44.12055" lon="0.60219">
        <ele>101.56</ele>
        <time>2015-01-03T11:39:25Z</time>
      </trkpt>
      <trkpt lat="44.12075" lon="0.60202">
        <ele>98.19</ele>
        <time>2015-01-03T11:39:44Z</time>
      </trkpt>
      <trkpt lat="44.12094" lon="0.60199">
        <ele>99.63</ele>
        <time>2015-01-03T11:40:02Z</time>
      </trkpt>
      <trkpt lat="44.12115" lon="0.60197">
        <ele>102.52</ele>
        <time>2015-01-03T11:40:20Z</time>
      </trkpt>
      <trkpt lat="44.12135" lon="0.60196">
        <ele>106.36</ele>
        <time>2015-01-03T11:40:38Z</time>
      </trkpt>
      <trkpt lat="44.12159" lon="0.60191">
        <ele>110.21</ele>
        <time>2015-01-03T11:40:59Z</time>
      </trkpt>
      <trkpt lat="44.12179" lon="0.60187">
        <ele>113.57</ele>
        <time>2015-01-03T11:41:17Z</time>
      </trkpt>
      <trkpt lat="44.12196" lon="0.6018">
        <ele>115.98</ele>
        <time>2015-01-03T11:41:32Z</time>
      </trkpt>
      <trkpt lat="44.12213" lon="0.6017">
        <ele>117.9</ele>
        <time>2015-01-03T11:41:47Z</time>
      </trkpt>
      <trkpt lat="44.12227" lon="0.6016">
        <ele>120.3</ele>
        <time>2015-01-03T11:42:00Z</time>
      </trkpt>
      <trkpt lat="44.12243" lon="0.60144">
        <ele>123.19</ele>
        <time>2015-01-03T11:42:17Z</time>
      </trkpt>
      <trkpt lat="44.12257" lon="0.60126">
        <ele>124.63</ele>
        <time>2015-01-03T11:42:35Z</time>
      </trkpt>
      <trkpt lat="44.12271" lon="0.60104">
        <ele>126.55</ele>
        <time>2015-01-03T11:42:56Z</time>
      </trkpt>
      <trkpt lat="44.12283" lon="0.60085">
        <ele>126.07</ele>
        <time>2015-01-03T11:43:15Z</time>
      </trkpt>
      <trkpt lat="44.12295" lon="0.60066">
        <ele>126.55</ele>
        <time>2015-01-03T11:43:32Z</time>
      </trkpt>
      <trkpt lat="44.12308" lon="0.6004">
        <ele>127.99</ele>
        <time>2015-01-03T11:43:52Z</time>
      </trkpt>
      <trkpt lat="44.1232" lon="0.60019">
        <ele>128.47</ele>
        <time>2015-01-03T11:44:10Z</time>
      </trkpt>
      <trkpt lat="44.1233" lon="0.59992">
        <ele>128.47</ele>
        <time>2015-01-03T11:44:27Z</time>
      </trkpt>
      <trkpt lat="44.12339" lon="0.5997">
        <ele>131.36</ele>
        <time>2015-01-03T11:44:45Z</time>
      </trkpt>
      <trkpt lat="44.12342" lon="0.59959">
        <ele>132.32</ele>
        <time>2015-01-03T11:44:57Z</time>
      </trkpt>
      <trkpt lat="44.12349" lon="0.59943">
        <ele>131.84</ele>
        <time>2015-01-03T11:45:10Z</time>
      </trkpt>
      <trkpt lat="44.12358" lon="0.59922">
        <ele>131.84</ele>
        <time>2015-01-03T11:45:25Z</time>
      </trkpt>
      <trkpt lat="44.1236" lon="0.59918">
        <ele>132.32</ele>
        <time>2015-01-03T11:45:28Z</time>
      </trkpt>
      <trkpt lat="44.12364" lon="0.59917">
        <ele>132.8</ele>
        <time>2015-01-03T11:45:32Z</time>
      </trkpt>
      <trkpt lat="44.12371" lon="0.59923">
        <ele>132.8</ele>
        <time>2015-01-03T11:45:47Z</time>
      </trkpt>
      <trkpt lat="44.12376" lon="0.59941">
        <ele>131.36</ele>
        <time>2015-01-03T11:46:04Z</time>
      </trkpt>
      <trkpt lat="44.12382" lon="0.59968">
        <ele>125.11</ele>
        <time>2015-01-03T11:46:24Z</time>
      </trkpt>
      <trkpt lat="44.12384" lon="0.59978">
        <ele>122.22</ele>
        <time>2015-01-03T11:46:31Z</time>
      </trkpt>
      <trkpt lat="44.1239" lon="0.60008">
        <ele>117.9</ele>
        <time>2015-01-03T11:46:50Z</time>
      </trkpt>
      <trkpt lat="44.12395" lon="0.60036">
        <ele>114.05</ele>
        <time>2015-01-03T11:47:09Z</time>
      </trkpt>
      <trkpt lat="44.124" lon="0.60064">
        <ele>110.21</ele>
        <time>2015-01-03T11:47:28Z</time>
      </trkpt>
      <trkpt lat="44.12408" lon="0.60085">
        <ele>107.81</ele>
        <time>2015-01-03T11:47:43Z</time>
      </trkpt>
      <trkpt lat="44.12414" lon="0.60111">
        <ele>103.48</ele>
        <time>2015-01-03T11:48:00Z</time>
      </trkpt>
      <trkpt lat="44.12416" lon="0.60139">
        <ele>101.56</ele>
        <time>2015-01-03T11:48:18Z</time>
      </trkpt>
      <trkpt lat="44.12416" lon="0.60165">
        <ele>102.52</ele>
        <time>2015-01-03T11:48:34Z</time>
      </trkpt>
      <trkpt lat="44.12415" lon="0.60195">
        <ele>104.92</ele>
        <time>2015-01-03T11:48:52Z</time>
      </trkpt>
      <trkpt lat="44.12414" lon="0.60217">
        <ele>103.96</ele>
        <time>2015-01-03T11:49:07Z</time>
      </trkpt>
      <trkpt lat="44.12411" lon="0.60248">
        <ele>106.36</ele>
        <time>2015-01-03T11:49:25Z</time>
      </trkpt>
      <trkpt lat="44.12408" lon="0.6026">
        <ele>107.81</ele>
        <time>2015-01-03T11:49:31Z</time>
      </trkpt>
      <trkpt lat="44.12391" lon="0.60281">
        <ele>109.73</ele>
        <time>2015-01-03T11:49:46Z</time>
      </trkpt>
      <trkpt lat="44.12382" lon="0.60315">
        <ele>109.25</ele>
        <time>2015-01-03T11:50:05Z</time>
      </trkpt>
      <trkpt lat="44.12374" lon="0.60354">
        <ele>108.29</ele>
        <time>2015-01-03T11:50:27Z</time>
      </trkpt>
      <trkpt lat="44.12369" lon="0.60379">
        <ele>106.36</ele>
        <time>2015-01-03T11:50:43Z</time>
      </trkpt>
      <trkpt lat="44.12366" lon="0.60405">
        <ele>103.96</ele>
        <time>2015-01-03T11:51:00Z</time>
      </trkpt>
      <trkpt lat="44.12363" lon="0.60415">
        <ele>101.08</ele>
        <time>2015-01-03T11:51:13Z</time>
      </trkpt>
      <trkpt lat="44.12354" lon="0.6042">
        <ele>93.87</ele>
        <time>2015-01-03T11:51:30Z</time>
      </trkpt>
      <trkpt lat="44.12347" lon="0.6043">
        <ele>89.06</ele>
        <time>2015-01-03T11:51:46Z</time>
      </trkpt>
      <trkpt lat="44.1234" lon="0.60442">
        <ele>87.14</ele>
        <time>2015-01-03T11:51:59Z</time>
      </trkpt>
      <trkpt lat="44.1234" lon="0.60463">
        <ele>84.25</ele>
        <time>2015-01-03T11:52:16Z</time>
      </trkpt>
      <trkpt lat="44.12338" lon="0.60476">
        <ele>82.33</ele>
        <time>2015-01-03T11:52:26Z</time>
      </trkpt>
      <trkpt lat="44.12336" lon="0.60486">
        <ele>82.81</ele>
        <time>2015-01-03T11:52:31Z</time>
      </trkpt>
      <trkpt lat="44.12343" lon="0.60512">
        <ele>83.77</ele>
        <time>2015-01-03T11:52:49Z</time>
      </trkpt>
      <trkpt lat="44.12344" lon="0.60512">
        <ele>83.77</ele>
        <time>2015-01-03T11:52:50Z</time>
      </trkpt>
      <trkpt lat="44.12348" lon="0.60514">
        <ele>83.77</ele>
        <time>2015-01-03T11:52:54Z</time>
      </trkpt>
      <trkpt lat="44.12361" lon="0.60519">
        <ele>86.18</ele>
        <time>2015-01-03T11:53:10Z</time>
      </trkpt>
      <trkpt lat="44.12364" lon="0.60523">
        <ele>89.06</ele>
        <time>2015-01-03T11:53:23Z</time>
      </trkpt>
      <trkpt lat="44.12371" lon="0.6053">
        <ele>92.9</ele>
        <time>2015-01-03T11:53:41Z</time>
      </trkpt>
      <trkpt lat="44.12365" lon="0.60544">
        <ele>95.31</ele>
        <time>2015-01-03T11:53:57Z</time>
      </trkpt>
      <trkpt lat="44.12347" lon="0.6055">
        <ele>96.27</ele>
        <time>2015-01-03T11:54:13Z</time>
      </trkpt>
      <trkpt lat="44.12342" lon="0.6055">
        <ele>95.79</ele>
        <time>2015-01-03T11:54:18Z</time>
      </trkpt>
      <trkpt lat="44.12333" lon="0.60558">
        <ele>95.79</ele>
        <time>2015-01-03T11:54:35Z</time>
      </trkpt>
      <trkpt lat="44.12331" lon="0.60559">
        <ele>96.27</ele>
        <time>2015-01-03T11:54:37Z</time>
      </trkpt>
      <trkpt lat="44.12325" lon="0.60568">
        <ele>96.75</ele>
        <time>2015-01-03T11:54:47Z</time>
      </trkpt>
      <trkpt lat="44.12318" lon="0.60579">
        <ele>97.23</ele>
        <time>2015-01-03T11:55:03Z</time>
      </trkpt>
      <trkpt lat="44.12317" lon="0.60581">
        <ele>102.04</ele>
        <time>2015-01-03T11:55:28Z</time>
      </trkpt>
      <trkpt lat="44.12315" lon="0.60585">
        <ele>102.52</ele>
        <time>2015-01-03T11:55:53Z</time>
      </trkpt>
      <trkpt lat="44.12315" lon="0.60589">
        <ele>102.52</ele>
        <time>2015-01-03T11:56:14Z</time>
      </trkpt>
      <trkpt lat="44.1231" lon="0.60586">
        <ele>99.15</ele>
        <time>2015-01-03T11:56:29Z</time>
      </trkpt>
      <trkpt lat="44.12307" lon="0.60585">
        <ele>98.67</ele>
        <time>2015-01-03T11:56:39Z</time>
      </trkpt>
      <trkpt lat="44.12306" lon="0.60583">
        <ele>99.63</ele>
        <time>2015-01-03T11:57:00Z</time>
      </trkpt>
      <trkpt lat="44.12308" lon="0.60577">
        <ele>102.52</ele>
        <time>2015-01-03T11:57:42Z</time>
      </trkpt>
      <trkpt lat="44.12307" lon="0.60571">
        <ele>109.25</ele>
        <time>2015-01-03T11:58:20Z</time>
      </trkpt>
      <trkpt lat="44.12307" lon="0.60581">
        <ele>103.96</ele>
        <time>2015-01-03T11:58:59Z</time>
      </trkpt>
      <trkpt lat="44.1231" lon="0.60582">
        <ele>102.04</ele>
        <time>2015-01-03T11:59:31Z</time>
      </trkpt>
      <trkpt lat="44.12314" lon="0.60582">
        <ele>103.48</ele>
        <time>2015-01-03T12:00:04Z</time>
      </trkpt>
      <trkpt lat="44.12316" lon="0.60579">
        <ele>104.44</ele>
        <time>2015-01-03T12:00:45Z</time>
      </trkpt>
      <trkpt lat="44.12313" lon="0.60578">
        <ele>102.04</ele>
        <time>2015-01-03T12:01:08Z</time>
      </trkpt>
      <trkpt lat="44.12312" lon="0.60573">
        <ele>101.08</ele>
        <time>2015-01-03T12:01:44Z</time>
      </trkpt>
      <trkpt lat="44.12313" lon="0.60576">
        <ele>102.04</ele>
        <time>2015-01-03T12:02:18Z</time>
      </trkpt>
      <trkpt lat="44.12312" lon="0.60577">
        <ele>101.56</ele>
        <time>2015-01-03T12:03:00Z</time>
      </trkpt>
      <trkpt lat="44.12312" lon="0.60573">
        <ele>101.08</ele>
        <time>2015-01-03T12:03:31Z</time>
      </trkpt>
      <trkpt lat="44.12311" lon="0.60575">
        <ele>100.11</ele>
        <time>2015-01-03T12:04:09Z</time>
      </trkpt>
      <trkpt lat="44.12307" lon="0.60576">
        <ele>101.56</ele>
        <time>2015-01-03T12:04:47Z</time>
      </trkpt>
      <trkpt lat="44.1231" lon="0.60575">
        <ele>105.88</ele>
        <time>2015-01-03T12:05:20Z</time>
      </trkpt>
      <trkpt lat="44.12308" lon="0.60576">
        <ele>103.96</ele>
        <time>2015-01-03T12:05:53Z</time>
      </trkpt>
      <trkpt lat="44.12308" lon="0.60577">
        <ele>101.56</ele>
        <time>2015-01-03T12:06:22Z</time>
      </trkpt>
      <trkpt lat="44.12307" lon="0.60577">
        <ele>105.4</ele>
        <time>2015-01-03T12:07:04Z</time>
      </trkpt>
      <trkpt lat="44.12307" lon="0.60576">
        <ele>106.84</ele>
        <time>2015-01-03T12:07:39Z</time>
      </trkpt>
      <trkpt lat="44.12307" lon="0.60579">
        <ele>106.84</ele>
        <time>2015-01-03T12:08:13Z</time>
      </trkpt>
      <trkpt lat="44.12308" lon="0.60576">
        <ele>109.25</ele>
        <time>2015-01-03T12:08:46Z</time>
      </trkpt>
      <trkpt lat="44.12311" lon="0.60571">
        <ele>112.13</ele>
        <time>2015-01-03T12:09:20Z</time>
      </trkpt>
      <trkpt lat="44.12312" lon="0.60575">
        <ele>108.29</ele>
        <time>2015-01-03T12:09:54Z</time>
      </trkpt>
      <trkpt lat="44.12311" lon="0.60573">
        <ele>111.65</ele>
        <time>2015-01-03T12:10:36Z</time>
      </trkpt>
      <trkpt lat="44.12311" lon="0.60578">
        <ele>110.21</ele>
        <time>2015-01-03T12:11:16Z</time>
      </trkpt>
      <trkpt lat="44.12307" lon="0.60579">
        <ele>108.77</ele>
        <time>2015-01-03T12:11:55Z</time>
      </trkpt>
      <trkpt lat="44.1231" lon="0.60576">
        <ele>108.29</ele>
        <time>2015-01-03T12:12:32Z</time>
      </trkpt>
      <trkpt lat="44.12311" lon="0.60579">
        <ele>110.69</ele>
        <time>2015-01-03T12:13:12Z</time>
      </trkpt>
      <trkpt lat="44.1231" lon="0.60579">
        <ele>111.17</ele>
        <time>2015-01-03T12:13:46Z</time>
      </trkpt>
      <trkpt lat="44.12309" lon="0.60576">
        <ele>107.32</ele>
        <time>2015-01-03T12:14:30Z</time>
      </trkpt>
      <trkpt lat="44.12309" lon="0.60578">
        <ele>103.48</ele>
        <time>2015-01-03T12:15:14Z</time>
      </trkpt>
      <trkpt lat="44.12308" lon="0.60582">
        <ele>101.56</ele>
        <time>2015-01-03T12:15:54Z</time>
      </trkpt>
      <trkpt lat="44.12309" lon="0.60582">
        <ele>103</ele>
        <time>2015-01-03T12:16:27Z</time>
      </trkpt>
      <trkpt lat="44.12307" lon="0.60578">
        <ele>103</ele>
        <time>2015-01-03T12:17:01Z</time>
      </trkpt>
      <trkpt lat="44.12309" lon="0.60578">
        <ele>105.4</ele>
        <time>2015-01-03T12:17:33Z</time>
      </trkpt>
      <trkpt lat="44.12306" lon="0.60578">
        <ele>109.25</ele>
        <time>2015-01-03T12:18:08Z</time>
      </trkpt>
      <trkpt lat="44.12309" lon="0.60578">
        <ele>110.69</ele>
        <time>2015-01-03T12:18:43Z</time>
      </trkpt>
      <trkpt lat="44.12309" lon="0.60576">
        <ele>112.61</ele>
        <time>2015-01-03T12:19:20Z</time>
      </trkpt>
      <trkpt lat="44.12308" lon="0.60578">
        <ele>112.13</ele>
        <time>2015-01-03T12:19:54Z</time>
      </trkpt>
      <trkpt lat="44.12308" lon="0.60583">
        <ele>110.69</ele>
        <time>2015-01-03T12:20:32Z</time>
      </trkpt>
      <trkpt lat="44.1231" lon="0.60583">
        <ele>104.44</ele>
        <time>2015-01-03T12:21:01Z</time>
      </trkpt>
      <trkpt lat="44.12309" lon="0.60581">
        <ele>103</ele>
        <time>2015-01-03T12:21:36Z</time>
      </trkpt>
      <trkpt lat="44.12305" lon="0.60578">
        <ele>103.48</ele>
        <time>2015-01-03T12:22:12Z</time>
      </trkpt>
      <trkpt lat="44.12305" lon="0.60577">
        <ele>105.4</ele>
        <time>2015-01-03T12:22:43Z</time>
      </trkpt>
      <trkpt lat="44.12306" lon="0.60578">
        <ele>104.44</ele>
        <time>2015-01-03T12:23:17Z</time>
      </trkpt>
      <trkpt lat="44.12305" lon="0.60581">
        <ele>107.81</ele>
        <time>2015-01-03T12:24:00Z</time>
      </trkpt>
      <trkpt lat="44.12306" lon="0.60577">
        <ele>108.29</ele>
        <time>2015-01-03T12:24:38Z</time>
      </trkpt>
      <trkpt lat="44.12307" lon="0.60579">
        <ele>107.32</ele>
        <time>2015-01-03T12:25:09Z</time>
      </trkpt>
      <trkpt lat="44.12307" lon="0.6058">
        <ele>105.4</ele>
        <time>2015-01-03T12:25:40Z</time>
      </trkpt>
      <trkpt lat="44.12308" lon="0.60582">
        <ele>101.56</ele>
        <time>2015-01-03T12:26:12Z</time>
      </trkpt>
      <trkpt lat="44.12308" lon="0.60584">
        <ele>98.19</ele>
        <time>2015-01-03T12:26:50Z</time>
      </trkpt>
      <trkpt lat="44.12305" lon="0.60585">
        <ele>98.19</ele>
        <time>2015-01-03T12:27:16Z</time>
      </trkpt>
      <trkpt lat="44.12308" lon="0.60583">
        <ele>95.31</ele>
        <time>2015-01-03T12:27:52Z</time>
      </trkpt>
      <trkpt lat="44.12307" lon="0.60581">
        <ele>98.67</ele>
        <time>2015-01-03T12:28:27Z</time>
      </trkpt>
      <trkpt lat="44.12306" lon="0.60581">
        <ele>103</ele>
        <time>2015-01-03T12:28:59Z</time>
      </trkpt>
      <trkpt lat="44.12306" lon="0.60584">
        <ele>101.56</ele>
        <time>2015-01-03T12:29:28Z</time>
      </trkpt>
      <trkpt lat="44.12306" lon="0.60586">
        <ele>99.15</ele>
        <time>2015-01-03T12:29:55Z</time>
      </trkpt>
      <trkpt lat="44.12306" lon="0.60587">
        <ele>100.11</ele>
        <time>2015-01-03T12:30:29Z</time>
      </trkpt>
      <trkpt lat="44.12305" lon="0.60585">
        <ele>98.19</ele>
        <time>2015-01-03T12:31:05Z</time>
      </trkpt>
      <trkpt lat="44.12304" lon="0.60582">
        <ele>96.75</ele>
        <time>2015-01-03T12:31:42Z</time>
      </trkpt>
      <trkpt lat="44.12306" lon="0.60586">
        <ele>92.9</ele>
        <time>2015-01-03T12:32:22Z</time>
      </trkpt>
      <trkpt lat="44.12301" lon="0.60586">
        <ele>90.98</ele>
        <time>2015-01-03T12:32:55Z</time>
      </trkpt>
      <trkpt lat="44.12306" lon="0.60578">
        <ele>92.42</ele>
        <time>2015-01-03T12:33:09Z</time>
      </trkpt>
      <trkpt lat="44.12308" lon="0.60576">
        <ele>93.87</ele>
        <time>2015-01-03T12:33:27Z</time>
      </trkpt>
      <trkpt lat="44.12312" lon="0.60575">
        <ele>91.94</ele>
        <time>2015-01-03T12:33:54Z</time>
      </trkpt>
      <trkpt lat="44.1231" lon="0.60571">
        <ele>94.83</ele>
        <time>2015-01-03T12:34:19Z</time>
      </trkpt>
      <trkpt lat="44.12306" lon="0.60571">
        <ele>98.19</ele>
        <time>2015-01-03T12:34:44Z</time>
      </trkpt>
      <trkpt lat="44.12309" lon="0.60574">
        <ele>103.96</ele>
        <time>2015-01-03T12:34:59Z</time>
      </trkpt>
      <trkpt lat="44.12313" lon="0.60565">
        <ele>103</ele>
        <time>2015-01-03T12:35:19Z</time>
      </trkpt>
      <trkpt lat="44.12321" lon="0.60557">
        <ele>101.56</ele>
        <time>2015-01-03T12:35:34Z</time>
      </trkpt>
      <trkpt lat="44.12325" lon="0.6055">
        <ele>101.56</ele>
        <time>2015-01-03T12:35:51Z</time>
      </trkpt>
      <trkpt lat="44.12329" lon="0.60546">
        <ele>99.15</ele>
        <time>2015-01-03T12:36:02Z</time>
      </trkpt>
      <trkpt lat="44.12345" lon="0.60542">
        <ele>96.27</ele>
        <time>2015-01-03T12:36:19Z</time>
      </trkpt>
      <trkpt lat="44.12364" lon="0.60538">
        <ele>91.46</ele>
        <time>2015-01-03T12:36:36Z</time>
      </trkpt>
      <trkpt lat="44.12384" lon="0.60535">
        <ele>86.18</ele>
        <time>2015-01-03T12:36:52Z</time>
      </trkpt>
      <trkpt lat="44.12396" lon="0.60529">
        <ele>85.69</ele>
        <time>2015-01-03T12:37:04Z</time>
      </trkpt>
      <trkpt lat="44.12404" lon="0.60527">
        <ele>86.18</ele>
        <time>2015-01-03T12:37:09Z</time>
      </trkpt>
      <trkpt lat="44.12424" lon="0.60518">
        <ele>86.66</ele>
        <time>2015-01-03T12:37:28Z</time>
      </trkpt>
      <trkpt lat="44.12443" lon="0.60511">
        <ele>88.1</ele>
        <time>2015-01-03T12:37:44Z</time>
      </trkpt>
      <trkpt lat="44.12455" lon="0.60503">
        <ele>87.14</ele>
        <time>2015-01-03T12:37:54Z</time>
      </trkpt>
      <trkpt lat="44.1247" lon="0.60497">
        <ele>84.73</ele>
        <time>2015-01-03T12:38:06Z</time>
      </trkpt>
      <trkpt lat="44.12482" lon="0.60505">
        <ele>85.69</ele>
        <time>2015-01-03T12:38:19Z</time>
      </trkpt>
      <trkpt lat="44.12497" lon="0.60516">
        <ele>87.62</ele>
        <time>2015-01-03T12:38:37Z</time>
      </trkpt>
      <trkpt lat="44.12503" lon="0.60534">
        <ele>88.1</ele>
        <time>2015-01-03T12:38:51Z</time>
      </trkpt>
      <trkpt lat="44.12508" lon="0.60553">
        <ele>90.5</ele>
        <time>2015-01-03T12:39:07Z</time>
      </trkpt>
      <trkpt lat="44.12502" lon="0.60559">
        <ele>93.87</ele>
        <time>2015-01-03T12:39:23Z</time>
      </trkpt>
      <trkpt lat="44.12485" lon="0.60566">
        <ele>97.71</ele>
        <time>2015-01-03T12:39:40Z</time>
      </trkpt>
      <trkpt lat="44.12486" lon="0.60569">
        <ele>97.71</ele>
        <time>2015-01-03T12:39:47Z</time>
      </trkpt>
      <trkpt lat="44.12495" lon="0.60581">
        <ele>100.6</ele>
        <time>2015-01-03T12:40:03Z</time>
      </trkpt>
      <trkpt lat="44.12504" lon="0.60591">
        <ele>101.56</ele>
        <time>2015-01-03T12:40:15Z</time>
      </trkpt>
      <trkpt lat="44.12508" lon="0.60595">
        <ele>102.04</ele>
        <time>2015-01-03T12:40:19Z</time>
      </trkpt>
      <trkpt lat="44.12523" lon="0.6061">
        <ele>103</ele>
        <time>2015-01-03T12:40:35Z</time>
      </trkpt>
      <trkpt lat="44.12536" lon="0.60626">
        <ele>105.88</ele>
        <time>2015-01-03T12:40:51Z</time>
      </trkpt>
      <trkpt lat="44.12548" lon="0.60637">
        <ele>107.81</ele>
        <time>2015-01-03T12:41:04Z</time>
      </trkpt>
      <trkpt lat="44.12563" lon="0.6064">
        <ele>111.65</ele>
        <time>2015-01-03T12:41:20Z</time>
      </trkpt>
      <trkpt lat="44.12568" lon="0.6064">
        <ele>112.13</ele>
        <time>2015-01-03T12:41:24Z</time>
      </trkpt>
      <trkpt lat="44.12584" lon="0.60639">
        <ele>115.5</ele>
        <time>2015-01-03T12:41:39Z</time>
      </trkpt>
      <trkpt lat="44.12602" lon="0.60649">
        <ele>119.34</ele>
        <time>2015-01-03T12:41:54Z</time>
      </trkpt>
      <trkpt lat="44.12615" lon="0.60653">
        <ele>123.19</ele>
        <time>2015-01-03T12:42:09Z</time>
      </trkpt>
      <trkpt lat="44.12631" lon="0.60671">
        <ele>125.59</ele>
        <time>2015-01-03T12:42:25Z</time>
      </trkpt>
      <trkpt lat="44.12642" lon="0.60679">
        <ele>127.99</ele>
        <time>2015-01-03T12:42:39Z</time>
      </trkpt>
      <trkpt lat="44.12655" lon="0.60696">
        <ele>127.51</ele>
        <time>2015-01-03T12:42:55Z</time>
      </trkpt>
      <trkpt lat="44.12657" lon="0.60701">
        <ele>127.03</ele>
        <time>2015-01-03T12:42:57Z</time>
      </trkpt>
      <trkpt lat="44.12665" lon="0.60738">
        <ele>118.86</ele>
        <time>2015-01-03T12:43:14Z</time>
      </trkpt>
      <trkpt lat="44.12667" lon="0.60766">
        <ele>115.5</ele>
        <time>2015-01-03T12:43:29Z</time>
      </trkpt>
      <trkpt lat="44.12667" lon="0.60795">
        <ele>115.98</ele>
        <time>2015-01-03T12:43:46Z</time>
      </trkpt>
      <trkpt lat="44.12659" lon="0.60827">
        <ele>113.09</ele>
        <time>2015-01-03T12:44:04Z</time>
      </trkpt>
      <trkpt lat="44.12656" lon="0.60853">
        <ele>112.13</ele>
        <time>2015-01-03T12:44:20Z</time>
      </trkpt>
      <trkpt lat="44.12655" lon="0.60881">
        <ele>114.05</ele>
        <time>2015-01-03T12:44:37Z</time>
      </trkpt>
      <trkpt lat="44.12653" lon="0.60894">
        <ele>112.61</ele>
        <time>2015-01-03T12:44:46Z</time>
      </trkpt>
      <trkpt lat="44.12648" lon="0.60916">
        <ele>111.65</ele>
        <time>2015-01-03T12:45:03Z</time>
      </trkpt>
      <trkpt lat="44.12648" lon="0.60916">
        <ele>111.65</ele>
        <time>2015-01-03T12:45:04Z</time>
      </trkpt>
      <trkpt lat="44.12652" lon="0.60919">
        <ele>114.05</ele>
        <time>2015-01-03T12:45:09Z</time>
      </trkpt>
      <trkpt lat="44.12667" lon="0.6092">
        <ele>115.5</ele>
        <time>2015-01-03T12:45:25Z</time>
      </trkpt>
      <trkpt lat="44.12681" lon="0.60929">
        <ele>117.42</ele>
        <time>2015-01-03T12:45:40Z</time>
      </trkpt>
      <trkpt lat="44.12693" lon="0.60939">
        <ele>121.26</ele>
        <time>2015-01-03T12:45:54Z</time>
      </trkpt>
      <trkpt lat="44.12699" lon="0.60944">
        <ele>122.71</ele>
        <time>2015-01-03T12:46:00Z</time>
      </trkpt>
      <trkpt lat="44.12704" lon="0.60948">
        <ele>122.71</ele>
        <time>2015-01-03T12:46:04Z</time>
      </trkpt>
      <trkpt lat="44.12716" lon="0.60966">
        <ele>122.22</ele>
        <time>2015-01-03T12:46:19Z</time>
      </trkpt>
      <trkpt lat="44.12719" lon="0.6097">
        <ele>122.22</ele>
        <time>2015-01-03T12:46:22Z</time>
      </trkpt>
      <trkpt lat="44.12719" lon="0.60976">
        <ele>122.71</ele>
        <time>2015-01-03T12:46:25Z</time>
      </trkpt>
      <trkpt lat="44.12733" lon="0.60987">
        <ele>121.74</ele>
        <time>2015-01-03T12:46:40Z</time>
      </trkpt>
      <trkpt lat="44.12736" lon="0.6099">
        <ele>120.78</ele>
        <time>2015-01-03T12:46:43Z</time>
      </trkpt>
      <trkpt lat="44.12745" lon="0.61017">
        <ele>120.78</ele>
        <time>2015-01-03T12:47:00Z</time>
      </trkpt>
      <trkpt lat="44.12752" lon="0.61036">
        <ele>122.71</ele>
        <time>2015-01-03T12:47:15Z</time>
      </trkpt>
      <trkpt lat="44.12756" lon="0.61049">
        <ele>124.63</ele>
        <time>2015-01-03T12:47:27Z</time>
      </trkpt>
      <trkpt lat="44.12763" lon="0.61069">
        <ele>127.99</ele>
        <time>2015-01-03T12:47:43Z</time>
      </trkpt>
      <trkpt lat="44.12769" lon="0.61088">
        <ele>131.84</ele>
        <time>2015-01-03T12:47:58Z</time>
      </trkpt>
      <trkpt lat="44.12775" lon="0.61102">
        <ele>134.24</ele>
        <time>2015-01-03T12:48:14Z</time>
      </trkpt>
      <trkpt lat="44.12782" lon="0.61112">
        <ele>137.61</ele>
        <time>2015-01-03T12:48:25Z</time>
      </trkpt>
      <trkpt lat="44.12794" lon="0.61119">
        <ele>137.61</ele>
        <time>2015-01-03T12:48:37Z</time>
      </trkpt>
      <trkpt lat="44.12812" lon="0.6114">
        <ele>139.05</ele>
        <time>2015-01-03T12:48:56Z</time>
      </trkpt>
      <trkpt lat="44.12824" lon="0.61161">
        <ele>138.57</ele>
        <time>2015-01-03T12:49:11Z</time>
      </trkpt>
      <trkpt lat="44.12835" lon="0.61185">
        <ele>138.57</ele>
        <time>2015-01-03T12:49:27Z</time>
      </trkpt>
      <trkpt lat="44.12846" lon="0.61214">
        <ele>139.05</ele>
        <time>2015-01-03T12:49:43Z</time>
      </trkpt>
      <trkpt lat="44.12847" lon="0.61239">
        <ele>137.61</ele>
        <time>2015-01-03T12:49:58Z</time>
      </trkpt>
      <trkpt lat="44.12847" lon="0.61272">
        <ele>137.13</ele>
        <time>2015-01-03T12:50:17Z</time>
      </trkpt>
      <trkpt lat="44.12847" lon="0.61306">
        <ele>135.2</ele>
        <time>2015-01-03T12:50:37Z</time>
      </trkpt>
      <trkpt lat="44.1285" lon="0.61338">
        <ele>133.76</ele>
        <time>2015-01-03T12:50:55Z</time>
      </trkpt>
      <trkpt lat="44.12851" lon="0.61354">
        <ele>132.32</ele>
        <time>2015-01-03T12:51:05Z</time>
      </trkpt>
      <trkpt lat="44.12851" lon="0.61385">
        <ele>130.4</ele>
        <time>2015-01-03T12:51:25Z</time>
      </trkpt>
      <trkpt lat="44.1285" lon="0.6142">
        <ele>129.92</ele>
        <time>2015-01-03T12:51:45Z</time>
      </trkpt>
      <trkpt lat="44.12848" lon="0.61454">
        <ele>128.47</ele>
        <time>2015-01-03T12:52:05Z</time>
      </trkpt>
      <trkpt lat="44.12847" lon="0.61485">
        <ele>127.03</ele>
        <time>2015-01-03T12:52:23Z</time>
      </trkpt>
      <trkpt lat="44.12848" lon="0.61515">
        <ele>127.03</ele>
        <time>2015-01-03T12:52:40Z</time>
      </trkpt>
      <trkpt lat="44.12851" lon="0.61543">
        <ele>125.59</ele>
        <time>2015-01-03T12:52:57Z</time>
      </trkpt>
      <trkpt lat="44.12854" lon="0.61568">
        <ele>124.63</ele>
        <time>2015-01-03T12:53:12Z</time>
      </trkpt>
      <trkpt lat="44.12855" lon="0.61579">
        <ele>124.15</ele>
        <time>2015-01-03T12:53:17Z</time>
      </trkpt>
      <trkpt lat="44.1286" lon="0.61598">
        <ele>125.59</ele>
        <time>2015-01-03T12:53:30Z</time>
      </trkpt>
      <trkpt lat="44.12864" lon="0.61626">
        <ele>123.19</ele>
        <time>2015-01-03T12:53:47Z</time>
      </trkpt>
      <trkpt lat="44.12868" lon="0.61655">
        <ele>119.34</ele>
        <time>2015-01-03T12:54:03Z</time>
      </trkpt>
      <trkpt lat="44.12876" lon="0.6169">
        <ele>116.94</ele>
        <time>2015-01-03T12:54:23Z</time>
      </trkpt>
      <trkpt lat="44.12882" lon="0.61723">
        <ele>117.42</ele>
        <time>2015-01-03T12:54:41Z</time>
      </trkpt>
      <trkpt lat="44.1288" lon="0.61751">
        <ele>115.98</ele>
        <time>2015-01-03T12:54:56Z</time>
      </trkpt>
      <trkpt lat="44.1287" lon="0.61781">
        <ele>115.5</ele>
        <time>2015-01-03T12:55:15Z</time>
      </trkpt>
      <trkpt lat="44.1286" lon="0.61813">
        <ele>113.57</ele>
        <time>2015-01-03T12:55:35Z</time>
      </trkpt>
      <trkpt lat="44.12851" lon="0.61843">
        <ele>115.5</ele>
        <time>2015-01-03T12:55:54Z</time>
      </trkpt>
      <trkpt lat="44.12843" lon="0.61878">
        <ele>115.98</ele>
        <time>2015-01-03T12:56:14Z</time>
      </trkpt>
      <trkpt lat="44.12835" lon="0.61909">
        <ele>114.53</ele>
        <time>2015-01-03T12:56:33Z</time>
      </trkpt>
      <trkpt lat="44.1283" lon="0.6194">
        <ele>111.65</ele>
        <time>2015-01-03T12:56:52Z</time>
      </trkpt>
      <trkpt lat="44.12836" lon="0.61947">
        <ele>110.69</ele>
        <time>2015-01-03T12:56:59Z</time>
      </trkpt>
      <trkpt lat="44.1286" lon="0.61956">
        <ele>110.21</ele>
        <time>2015-01-03T12:57:19Z</time>
      </trkpt>
      <trkpt lat="44.12877" lon="0.61957">
        <ele>111.17</ele>
        <time>2015-01-03T12:57:33Z</time>
      </trkpt>
      <trkpt lat="44.12899" lon="0.61965">
        <ele>112.13</ele>
        <time>2015-01-03T12:57:51Z</time>
      </trkpt>
      <trkpt lat="44.12904" lon="0.61969">
        <ele>112.61</ele>
        <time>2015-01-03T12:57:55Z</time>
      </trkpt>
      <trkpt lat="44.12925" lon="0.61975">
        <ele>115.01</ele>
        <time>2015-01-03T12:58:13Z</time>
      </trkpt>
      <trkpt lat="44.12939" lon="0.61978">
        <ele>115.01</ele>
        <time>2015-01-03T12:58:28Z</time>
      </trkpt>
      <trkpt lat="44.12939" lon="0.61979">
        <ele>115.01</ele>
        <time>2015-01-03T12:58:29Z</time>
      </trkpt>
      <trkpt lat="44.12953" lon="0.61999">
        <ele>114.53</ele>
        <time>2015-01-03T12:58:48Z</time>
      </trkpt>
      <trkpt lat="44.12961" lon="0.62005">
        <ele>114.05</ele>
        <time>2015-01-03T12:58:56Z</time>
      </trkpt>
      <trkpt lat="44.12973" lon="0.62026">
        <ele>114.05</ele>
        <time>2015-01-03T12:59:12Z</time>
      </trkpt>
      <trkpt lat="44.12975" lon="0.62032">
        <ele>113.57</ele>
        <time>2015-01-03T12:59:18Z</time>
      </trkpt>
      <trkpt lat="44.12981" lon="0.62055">
        <ele>111.65</ele>
        <time>2015-01-03T12:59:32Z</time>
      </trkpt>
      <trkpt lat="44.12985" lon="0.62072">
        <ele>108.77</ele>
        <time>2015-01-03T12:59:43Z</time>
      </trkpt>
      <trkpt lat="44.12993" lon="0.62088">
        <ele>105.88</ele>
        <time>2015-01-03T12:59:54Z</time>
      </trkpt>
      <trkpt lat="44.12997" lon="0.6211">
        <ele>100.11</ele>
        <time>2015-01-03T13:00:10Z</time>
      </trkpt>
      <trkpt lat="44.13003" lon="0.62125">
        <ele>97.71</ele>
        <time>2015-01-03T13:00:21Z</time>
      </trkpt>
      <trkpt lat="44.13005" lon="0.62131">
        <ele>97.71</ele>
        <time>2015-01-03T13:00:24Z</time>
      </trkpt>
      <trkpt lat="44.13013" lon="0.62153">
        <ele>99.63</ele>
        <time>2015-01-03T13:00:39Z</time>
      </trkpt>
      <trkpt lat="44.13015" lon="0.62159">
        <ele>99.63</ele>
        <time>2015-01-03T13:00:43Z</time>
      </trkpt>
      <trkpt lat="44.13015" lon="0.62182">
        <ele>99.63</ele>
        <time>2015-01-03T13:00:58Z</time>
      </trkpt>
      <trkpt lat="44.13015" lon="0.62193">
        <ele>99.63</ele>
        <time>2015-01-03T13:01:04Z</time>
      </trkpt>
      <trkpt lat="44.13018" lon="0.62215">
        <ele>97.71</ele>
        <time>2015-01-03T13:01:18Z</time>
      </trkpt>
      <trkpt lat="44.13019" lon="0.62223">
        <ele>95.79</ele>
        <time>2015-01-03T13:01:24Z</time>
      </trkpt>
      <trkpt lat="44.13019" lon="0.62252">
        <ele>90.98</ele>
        <time>2015-01-03T13:01:40Z</time>
      </trkpt>
      <trkpt lat="44.13024" lon="0.62275">
        <ele>90.02</ele>
        <time>2015-01-03T13:01:55Z</time>
      </trkpt>
      <trkpt lat="44.13029" lon="0.62293">
        <ele>90.5</ele>
        <time>2015-01-03T13:02:09Z</time>
      </trkpt>
      <trkpt lat="44.13039" lon="0.62302">
        <ele>95.79</ele>
        <time>2015-01-03T13:02:24Z</time>
      </trkpt>
      <trkpt lat="44.13047" lon="0.62308">
        <ele>99.15</ele>
        <time>2015-01-03T13:02:33Z</time>
      </trkpt>
      <trkpt lat="44.13067" lon="0.6232">
        <ele>104.92</ele>
        <time>2015-01-03T13:02:51Z</time>
      </trkpt>
      <trkpt lat="44.13084" lon="0.6233">
        <ele>108.77</ele>
        <time>2015-01-03T13:03:06Z</time>
      </trkpt>
      <trkpt lat="44.13097" lon="0.62336">
        <ele>114.05</ele>
        <time>2015-01-03T13:03:17Z</time>
      </trkpt>
      <trkpt lat="44.13119" lon="0.62343">
        <ele>119.82</ele>
        <time>2015-01-03T13:03:31Z</time>
      </trkpt>
      <trkpt lat="44.13138" lon="0.62361">
        <ele>111.17</ele>
        <time>2015-01-03T13:03:44Z</time>
      </trkpt>
      <trkpt lat="44.13157" lon="0.6237">
        <ele>105.88</ele>
        <time>2015-01-03T13:03:55Z</time>
      </trkpt>
      <trkpt lat="44.13177" lon="0.62377">
        <ele>99.15</ele>
        <time>2015-01-03T13:04:10Z</time>
      </trkpt>
      <trkpt lat="44.13193" lon="0.62388">
        <ele>91.94</ele>
        <time>2015-01-03T13:04:25Z</time>
      </trkpt>
      <trkpt lat="44.13205" lon="0.62393">
        <ele>87.14</ele>
        <time>2015-01-03T13:04:36Z</time>
      </trkpt>
      <trkpt lat="44.1322" lon="0.62397">
        <ele>83.77</ele>
        <time>2015-01-03T13:04:49Z</time>
      </trkpt>
      <trkpt lat="44.13237" lon="0.62405">
        <ele>78.48</ele>
        <time>2015-01-03T13:05:03Z</time>
      </trkpt>
      <trkpt lat="44.13247" lon="0.62409">
        <ele>77.04</ele>
        <time>2015-01-03T13:05:11Z</time>
      </trkpt>
      <trkpt lat="44.13259" lon="0.62419">
        <ele>75.12</ele>
        <time>2015-01-03T13:05:24Z</time>
      </trkpt>
      <trkpt lat="44.13276" lon="0.62433">
        <ele>72.24</ele>
        <time>2015-01-03T13:05:39Z</time>
      </trkpt>
      <trkpt lat="44.13293" lon="0.62448">
        <ele>68.87</ele>
        <time>2015-01-03T13:05:56Z</time>
      </trkpt>
      <trkpt lat="44.13304" lon="0.62443">
        <ele>70.31</ele>
        <time>2015-01-03T13:06:08Z</time>
      </trkpt>
      <trkpt lat="44.13307" lon="0.62442">
        <ele>70.79</ele>
        <time>2015-01-03T13:06:11Z</time>
      </trkpt>
      <trkpt lat="44.13322" lon="0.6243">
        <ele>70.79</ele>
        <time>2015-01-03T13:06:27Z</time>
      </trkpt>
      <trkpt lat="44.13336" lon="0.62411">
        <ele>69.83</ele>
        <time>2015-01-03T13:06:44Z</time>
      </trkpt>
      <trkpt lat="44.13347" lon="0.62397">
        <ele>70.79</ele>
        <time>2015-01-03T13:06:58Z</time>
      </trkpt>
      <trkpt lat="44.13358" lon="0.62386">
        <ele>70.31</ele>
        <time>2015-01-03T13:07:14Z</time>
      </trkpt>
      <trkpt lat="44.13377" lon="0.62367">
        <ele>71.76</ele>
        <time>2015-01-03T13:07:32Z</time>
      </trkpt>
      <trkpt lat="44.13398" lon="0.62352">
        <ele>71.76</ele>
        <time>2015-01-03T13:07:47Z</time>
      </trkpt>
      <trkpt lat="44.13413" lon="0.62339">
        <ele>76.08</ele>
        <time>2015-01-03T13:08:00Z</time>
      </trkpt>
      <trkpt lat="44.13431" lon="0.62323">
        <ele>79.93</ele>
        <time>2015-01-03T13:08:15Z</time>
      </trkpt>
      <trkpt lat="44.13447" lon="0.62306">
        <ele>80.41</ele>
        <time>2015-01-03T13:08:30Z</time>
      </trkpt>
      <trkpt lat="44.13457" lon="0.62294">
        <ele>79.45</ele>
        <time>2015-01-03T13:08:41Z</time>
      </trkpt>
      <trkpt lat="44.13472" lon="0.62273">
        <ele>77.04</ele>
        <time>2015-01-03T13:08:57Z</time>
      </trkpt>
      <trkpt lat="44.13484" lon="0.62259">
        <ele>75.6</ele>
        <time>2015-01-03T13:09:10Z</time>
      </trkpt>
      <trkpt lat="44.13493" lon="0.62253">
        <ele>76.56</ele>
        <time>2015-01-03T13:09:17Z</time>
      </trkpt>
      <trkpt lat="44.13519" lon="0.62234">
        <ele>72.72</ele>
        <time>2015-01-03T13:09:33Z</time>
      </trkpt>
      <trkpt lat="44.13525" lon="0.6223">
        <ele>72.24</ele>
        <time>2015-01-03T13:09:37Z</time>
      </trkpt>
      <trkpt lat="44.13542" lon="0.6222">
        <ele>71.76</ele>
        <time>2015-01-03T13:09:52Z</time>
      </trkpt>
      <trkpt lat="44.13557" lon="0.62216">
        <ele>71.27</ele>
        <time>2015-01-03T13:10:04Z</time>
      </trkpt>
      <trkpt lat="44.13568" lon="0.62203">
        <ele>71.27</ele>
        <time>2015-01-03T13:10:17Z</time>
      </trkpt>
      <trkpt lat="44.13572" lon="0.62193">
        <ele>70.79</ele>
        <time>2015-01-03T13:10:25Z</time>
      </trkpt>
      <trkpt lat="44.13572" lon="0.62188">
        <ele>71.27</ele>
        <time>2015-01-03T13:10:29Z</time>
      </trkpt>
      <trkpt lat="44.13556" lon="0.62175">
        <ele>73.68</ele>
        <time>2015-01-03T13:10:46Z</time>
      </trkpt>
      <trkpt lat="44.13552" lon="0.62168">
        <ele>73.68</ele>
        <time>2015-01-03T13:10:50Z</time>
      </trkpt>
      <trkpt lat="44.13549" lon="0.62157">
        <ele>69.35</ele>
        <time>2015-01-03T13:11:08Z</time>
      </trkpt>
      <trkpt lat="44.13547" lon="0.62151">
        <ele>65.99</ele>
        <time>2015-01-03T13:11:28Z</time>
      </trkpt>
      <trkpt lat="44.13549" lon="0.62146">
        <ele>65.03</ele>
        <time>2015-01-03T13:11:37Z</time>
      </trkpt>
      <trkpt lat="44.13564" lon="0.62143">
        <ele>63.1</ele>
        <time>2015-01-03T13:11:51Z</time>
      </trkpt>
      <trkpt lat="44.13568" lon="0.62145">
        <ele>63.58</ele>
        <time>2015-01-03T13:11:57Z</time>
      </trkpt>
      <trkpt lat="44.13588" lon="0.62151">
        <ele>66.47</ele>
        <time>2015-01-03T13:12:13Z</time>
      </trkpt>
      <trkpt lat="44.13589" lon="0.62151">
        <ele>66.95</ele>
        <time>2015-01-03T13:12:14Z</time>
      </trkpt>
      <trkpt lat="44.13595" lon="0.62153">
        <ele>68.87</ele>
        <time>2015-01-03T13:12:18Z</time>
      </trkpt>
      <trkpt lat="44.13606" lon="0.62165">
        <ele>68.87</ele>
        <time>2015-01-03T13:12:30Z</time>
      </trkpt>
      <trkpt lat="44.13621" lon="0.62166">
        <ele>70.79</ele>
        <time>2015-01-03T13:12:45Z</time>
      </trkpt>
      <trkpt lat="44.13639" lon="0.62174">
        <ele>70.79</ele>
        <time>2015-01-03T13:13:00Z</time>
      </trkpt>
      <trkpt lat="44.13641" lon="0.62173">
        <ele>70.79</ele>
        <time>2015-01-03T13:13:02Z</time>
      </trkpt>
      <trkpt lat="44.13646" lon="0.62172">
        <ele>70.31</ele>
        <time>2015-01-03T13:13:06Z</time>
      </trkpt>
      <trkpt lat="44.13665" lon="0.62182">
        <ele>66.95</ele>
        <time>2015-01-03T13:13:22Z</time>
      </trkpt>
      <trkpt lat="44.13685" lon="0.62192">
        <ele>66.95</ele>
        <time>2015-01-03T13:13:39Z</time>
      </trkpt>
      <trkpt lat="44.13703" lon="0.62202">
        <ele>67.43</ele>
        <time>2015-01-03T13:13:55Z</time>
      </trkpt>
      <trkpt lat="44.13719" lon="0.62215">
        <ele>70.79</ele>
        <time>2015-01-03T13:14:11Z</time>
      </trkpt>
      <trkpt lat="44.13732" lon="0.62224">
        <ele>74.64</ele>
        <time>2015-01-03T13:14:25Z</time>
      </trkpt>
      <trkpt lat="44.13743" lon="0.62235">
        <ele>77.52</ele>
        <time>2015-01-03T13:14:36Z</time>
      </trkpt>
      <trkpt lat="44.1376" lon="0.62258">
        <ele>75.6</ele>
        <time>2015-01-03T13:14:51Z</time>
      </trkpt>
      <trkpt lat="44.13776" lon="0.62273">
        <ele>75.12</ele>
        <time>2015-01-03T13:15:06Z</time>
      </trkpt>
      <trkpt lat="44.13792" lon="0.6229">
        <ele>75.12</ele>
        <time>2015-01-03T13:15:21Z</time>
      </trkpt>
      <trkpt lat="44.13802" lon="0.62302">
        <ele>72.72</ele>
        <time>2015-01-03T13:15:33Z</time>
      </trkpt>
      <trkpt lat="44.13818" lon="0.62314">
        <ele>71.27</ele>
        <time>2015-01-03T13:15:48Z</time>
      </trkpt>
      <trkpt lat="44.1383" lon="0.62327">
        <ele>70.31</ele>
        <time>2015-01-03T13:16:01Z</time>
      </trkpt>
      <trkpt lat="44.13841" lon="0.62335">
        <ele>73.2</ele>
        <time>2015-01-03T13:16:13Z</time>
      </trkpt>
      <trkpt lat="44.13856" lon="0.62351">
        <ele>75.6</ele>
        <time>2015-01-03T13:16:29Z</time>
      </trkpt>
      <trkpt lat="44.13873" lon="0.62378">
        <ele>73.68</ele>
        <time>2015-01-03T13:16:43Z</time>
      </trkpt>
      <trkpt lat="44.1389" lon="0.62385">
        <ele>65.99</ele>
        <time>2015-01-03T13:16:55Z</time>
      </trkpt>
      <trkpt lat="44.13912" lon="0.62384">
        <ele>61.18</ele>
        <time>2015-01-03T13:17:08Z</time>
      </trkpt>
      <trkpt lat="44.1393" lon="0.62376">
        <ele>63.58</ele>
        <time>2015-01-03T13:17:24Z</time>
      </trkpt>
      <trkpt lat="44.13944" lon="0.62369">
        <ele>65.51</ele>
        <time>2015-01-03T13:17:37Z</time>
      </trkpt>
      <trkpt lat="44.13963" lon="0.62363">
        <ele>67.43</ele>
        <time>2015-01-03T13:17:54Z</time>
      </trkpt>
      <trkpt lat="44.13967" lon="0.62357">
        <ele>67.43</ele>
        <time>2015-01-03T13:18:13Z</time>
      </trkpt>
      <trkpt lat="44.13966" lon="0.62355">
        <ele>66.95</ele>
        <time>2015-01-03T13:18:15Z</time>
      </trkpt>
      <trkpt lat="44.13964" lon="0.62345">
        <ele>64.07</ele>
        <time>2015-01-03T13:18:23Z</time>
      </trkpt>
      <trkpt lat="44.13959" lon="0.62321">
        <ele>59.26</ele>
        <time>2015-01-03T13:18:40Z</time>
      </trkpt>
      <trkpt lat="44.13957" lon="0.62302">
        <ele>57.82</ele>
        <time>2015-01-03T13:18:55Z</time>
      </trkpt>
      <trkpt lat="44.13954" lon="0.62274">
        <ele>58.3</ele>
        <time>2015-01-03T13:19:14Z</time>
      </trkpt>
      <trkpt lat="44.13951" lon="0.6225">
        <ele>60.22</ele>
        <time>2015-01-03T13:19:29Z</time>
      </trkpt>
      <trkpt lat="44.13949" lon="0.62242">
        <ele>62.14</ele>
        <time>2015-01-03T13:19:36Z</time>
      </trkpt>
      <trkpt lat="44.1394" lon="0.62223">
        <ele>65.99</ele>
        <time>2015-01-03T13:19:54Z</time>
      </trkpt>
      <trkpt lat="44.13931" lon="0.62202">
        <ele>71.27</ele>
        <time>2015-01-03T13:20:13Z</time>
      </trkpt>
      <trkpt lat="44.13921" lon="0.6218">
        <ele>73.2</ele>
        <time>2015-01-03T13:20:32Z</time>
      </trkpt>
      <trkpt lat="44.13909" lon="0.6216">
        <ele>77.04</ele>
        <time>2015-01-03T13:20:49Z</time>
      </trkpt>
      <trkpt lat="44.13902" lon="0.62142">
        <ele>81.37</ele>
        <time>2015-01-03T13:21:04Z</time>
      </trkpt>
      <trkpt lat="44.13892" lon="0.62127">
        <ele>86.66</ele>
        <time>2015-01-03T13:21:20Z</time>
      </trkpt>
      <trkpt lat="44.13885" lon="0.62109">
        <ele>89.06</ele>
        <time>2015-01-03T13:21:35Z</time>
      </trkpt>
      <trkpt lat="44.13886" lon="0.62089">
        <ele>92.42</ele>
        <time>2015-01-03T13:21:50Z</time>
      </trkpt>
      <trkpt lat="44.13889" lon="0.62067">
        <ele>93.87</ele>
        <time>2015-01-03T13:22:07Z</time>
      </trkpt>
      <trkpt lat="44.13885" lon="0.62052">
        <ele>93.39</ele>
        <time>2015-01-03T13:22:24Z</time>
      </trkpt>
      <trkpt lat="44.13881" lon="0.62032">
        <ele>97.23</ele>
        <time>2015-01-03T13:22:41Z</time>
      </trkpt>
      <trkpt lat="44.13874" lon="0.62018">
        <ele>101.56</ele>
        <time>2015-01-03T13:22:55Z</time>
      </trkpt>
      <trkpt lat="44.13867" lon="0.61993">
        <ele>103.96</ele>
        <time>2015-01-03T13:23:12Z</time>
      </trkpt>
      <trkpt lat="44.13862" lon="0.61969">
        <ele>103</ele>
        <time>2015-01-03T13:23:28Z</time>
      </trkpt>
      <trkpt lat="44.13855" lon="0.61943">
        <ele>103</ele>
        <time>2015-01-03T13:23:45Z</time>
      </trkpt>
      <trkpt lat="44.13848" lon="0.61922">
        <ele>105.4</ele>
        <time>2015-01-03T13:24:00Z</time>
      </trkpt>
      <trkpt lat="44.13841" lon="0.61887">
        <ele>103.96</ele>
        <time>2015-01-03T13:24:18Z</time>
      </trkpt>
      <trkpt lat="44.13838" lon="0.61866">
        <ele>104.44</ele>
        <time>2015-01-03T13:24:32Z</time>
      </trkpt>
      <trkpt lat="44.13835" lon="0.61838">
        <ele>107.32</ele>
        <time>2015-01-03T13:24:47Z</time>
      </trkpt>
      <trkpt lat="44.13831" lon="0.61814">
        <ele>107.81</ele>
        <time>2015-01-03T13:25:03Z</time>
      </trkpt>
      <trkpt lat="44.13826" lon="0.61781">
        <ele>112.61</ele>
        <time>2015-01-03T13:25:21Z</time>
      </trkpt>
      <trkpt lat="44.13822" lon="0.61758">
        <ele>116.46</ele>
        <time>2015-01-03T13:25:37Z</time>
      </trkpt>
      <trkpt lat="44.13819" lon="0.61728">
        <ele>123.19</ele>
        <time>2015-01-03T13:25:53Z</time>
      </trkpt>
      <trkpt lat="44.13818" lon="0.61708">
        <ele>125.11</ele>
        <time>2015-01-03T13:26:07Z</time>
      </trkpt>
      <trkpt lat="44.13818" lon="0.61687">
        <ele>127.03</ele>
        <time>2015-01-03T13:26:19Z</time>
      </trkpt>
      <trkpt lat="44.13821" lon="0.61652">
        <ele>123.19</ele>
        <time>2015-01-03T13:26:36Z</time>
      </trkpt>
      <trkpt lat="44.13821" lon="0.61648">
        <ele>122.22</ele>
        <time>2015-01-03T13:26:38Z</time>
      </trkpt>
      <trkpt lat="44.13822" lon="0.61618">
        <ele>118.38</ele>
        <time>2015-01-03T13:26:56Z</time>
      </trkpt>
      <trkpt lat="44.13824" lon="0.61594">
        <ele>116.94</ele>
        <time>2015-01-03T13:27:09Z</time>
      </trkpt>
      <trkpt lat="44.13824" lon="0.61566">
        <ele>116.46</ele>
        <time>2015-01-03T13:27:24Z</time>
      </trkpt>
      <trkpt lat="44.13822" lon="0.61533">
        <ele>115.01</ele>
        <time>2015-01-03T13:27:42Z</time>
      </trkpt>
      <trkpt lat="44.1382" lon="0.6151">
        <ele>113.57</ele>
        <time>2015-01-03T13:27:56Z</time>
      </trkpt>
      <trkpt lat="44.13817" lon="0.61485">
        <ele>112.61</ele>
        <time>2015-01-03T13:28:10Z</time>
      </trkpt>
      <trkpt lat="44.13815" lon="0.61456">
        <ele>113.09</ele>
        <time>2015-01-03T13:28:25Z</time>
      </trkpt>
      <trkpt lat="44.13821" lon="0.61429">
        <ele>111.17</ele>
        <time>2015-01-03T13:28:40Z</time>
      </trkpt>
      <trkpt lat="44.13832" lon="0.61409">
        <ele>109.25</ele>
        <time>2015-01-03T13:28:55Z</time>
      </trkpt>
      <trkpt lat="44.13836" lon="0.61387">
        <ele>109.25</ele>
        <time>2015-01-03T13:29:11Z</time>
      </trkpt>
      <trkpt lat="44.1384" lon="0.61374">
        <ele>111.17</ele>
        <time>2015-01-03T13:29:22Z</time>
      </trkpt>
      <trkpt lat="44.13848" lon="0.61356">
        <ele>114.05</ele>
        <time>2015-01-03T13:29:35Z</time>
      </trkpt>
      <trkpt lat="44.13852" lon="0.61348">
        <ele>113.57</ele>
        <time>2015-01-03T13:29:43Z</time>
      </trkpt>
      <trkpt lat="44.13854" lon="0.61338">
        <ele>114.53</ele>
        <time>2015-01-03T13:29:49Z</time>
      </trkpt>
      <trkpt lat="44.13856" lon="0.61329">
        <ele>115.98</ele>
        <time>2015-01-03T13:29:54Z</time>
      </trkpt>
      <trkpt lat="44.13858" lon="0.6132">
        <ele>118.86</ele>
        <time>2015-01-03T13:30:07Z</time>
      </trkpt>
      <trkpt lat="44.13868" lon="0.61299">
        <ele>117.42</ele>
        <time>2015-01-03T13:30:23Z</time>
      </trkpt>
      <trkpt lat="44.13879" lon="0.6128">
        <ele>116.94</ele>
        <time>2015-01-03T13:30:39Z</time>
      </trkpt>
      <trkpt lat="44.1389" lon="0.61258">
        <ele>118.86</ele>
        <time>2015-01-03T13:30:56Z</time>
      </trkpt>
      <trkpt lat="44.139" lon="0.6124">
        <ele>121.26</ele>
        <time>2015-01-03T13:31:11Z</time>
      </trkpt>
      <trkpt lat="44.13912" lon="0.61215">
        <ele>123.67</ele>
        <time>2015-01-03T13:31:30Z</time>
      </trkpt>
      <trkpt lat="44.13915" lon="0.61208">
        <ele>124.63</ele>
        <time>2015-01-03T13:31:39Z</time>
      </trkpt>
      <trkpt lat="44.13906" lon="0.61186">
        <ele>124.15</ele>
        <time>2015-01-03T13:31:58Z</time>
      </trkpt>
      <trkpt lat="44.13894" lon="0.61171">
        <ele>124.15</ele>
        <time>2015-01-03T13:32:15Z</time>
      </trkpt>
      <trkpt lat="44.1388" lon="0.61155">
        <ele>122.71</ele>
        <time>2015-01-03T13:32:34Z</time>
      </trkpt>
      <trkpt lat="44.13869" lon="0.61126">
        <ele>124.63</ele>
        <time>2015-01-03T13:32:54Z</time>
      </trkpt>
      <trkpt lat="44.13861" lon="0.61102">
        <ele>127.51</ele>
        <time>2015-01-03T13:33:11Z</time>
      </trkpt>
      <trkpt lat="44.13855" lon="0.61079">
        <ele>130.4</ele>
        <time>2015-01-03T13:33:29Z</time>
      </trkpt>
      <trkpt lat="44.13852" lon="0.61053">
        <ele>130.4</ele>
        <time>2015-01-03T13:33:47Z</time>
      </trkpt>
      <trkpt lat="44.13849" lon="0.61029">
        <ele>133.76</ele>
        <time>2015-01-03T13:34:05Z</time>
      </trkpt>
      <trkpt lat="44.13856" lon="0.61017">
        <ele>138.09</ele>
        <time>2015-01-03T13:34:19Z</time>
      </trkpt>
      <trkpt lat="44.13862" lon="0.61013">
        <ele>141.45</ele>
        <time>2015-01-03T13:34:28Z</time>
      </trkpt>
      <trkpt lat="44.13881" lon="0.61008">
        <ele>144.34</ele>
        <time>2015-01-03T13:34:46Z</time>
      </trkpt>
      <trkpt lat="44.13899" lon="0.61005">
        <ele>146.74</ele>
        <time>2015-01-03T13:35:04Z</time>
      </trkpt>
      <trkpt lat="44.13918" lon="0.61008">
        <ele>146.26</ele>
        <time>2015-01-03T13:35:21Z</time>
      </trkpt>
      <trkpt lat="44.13921" lon="0.61009">
        <ele>149.14</ele>
        <time>2015-01-03T13:35:42Z</time>
      </trkpt>
      <trkpt lat="44.13926" lon="0.61009">
        <ele>151.06</ele>
        <time>2015-01-03T13:36:01Z</time>
      </trkpt>
      <trkpt lat="44.13928" lon="0.61009">
        <ele>151.06</ele>
        <time>2015-01-03T13:36:03Z</time>
      </trkpt>
      <trkpt lat="44.13938" lon="0.61006">
        <ele>150.1</ele>
        <time>2015-01-03T13:36:14Z</time>
      </trkpt>
      <trkpt lat="44.1394" lon="0.61007">
        <ele>150.58</ele>
        <time>2015-01-03T13:36:16Z</time>
      </trkpt>
      <trkpt lat="44.13961" lon="0.60995">
        <ele>152.51</ele>
        <time>2015-01-03T13:36:37Z</time>
      </trkpt>
      <trkpt lat="44.13975" lon="0.60981">
        <ele>152.99</ele>
        <time>2015-01-03T13:36:52Z</time>
      </trkpt>
      <trkpt lat="44.1399" lon="0.60954">
        <ele>153.47</ele>
        <time>2015-01-03T13:37:12Z</time>
      </trkpt>
      <trkpt lat="44.14" lon="0.60925">
        <ele>154.43</ele>
        <time>2015-01-03T13:37:31Z</time>
      </trkpt>
      <trkpt lat="44.14007" lon="0.60897">
        <ele>152.99</ele>
        <time>2015-01-03T13:37:49Z</time>
      </trkpt>
      <trkpt lat="44.14011" lon="0.60876">
        <ele>152.03</ele>
        <time>2015-01-03T13:38:02Z</time>
      </trkpt>
      <trkpt lat="44.1403" lon="0.60878">
        <ele>153.47</ele>
        <time>2015-01-03T13:38:18Z</time>
      </trkpt>
      <trkpt lat="44.14033" lon="0.6088">
        <ele>153.47</ele>
        <time>2015-01-03T13:38:21Z</time>
      </trkpt>
      <trkpt lat="44.14041" lon="0.60884">
        <ele>153.47</ele>
        <time>2015-01-03T13:38:27Z</time>
      </trkpt>
      <trkpt lat="44.14046" lon="0.60887">
        <ele>153.95</ele>
        <time>2015-01-03T13:38:31Z</time>
      </trkpt>
      <trkpt lat="44.14051" lon="0.60882">
        <ele>153.47</ele>
        <time>2015-01-03T13:38:37Z</time>
      </trkpt>
      <trkpt lat="44.14065" lon="0.60859">
        <ele>153.47</ele>
        <time>2015-01-03T13:38:57Z</time>
      </trkpt>
      <trkpt lat="44.14087" lon="0.60861">
        <ele>154.91</ele>
        <time>2015-01-03T13:39:15Z</time>
      </trkpt>
      <trkpt lat="44.14105" lon="0.60865">
        <ele>154.91</ele>
        <time>2015-01-03T13:39:31Z</time>
      </trkpt>
      <trkpt lat="44.14109" lon="0.60868">
        <ele>155.87</ele>
        <time>2015-01-03T13:39:35Z</time>
      </trkpt>
      <trkpt lat="44.14114" lon="0.60896">
        <ele>152.51</ele>
        <time>2015-01-03T13:39:55Z</time>
      </trkpt>
      <trkpt lat="44.14118" lon="0.60898">
        <ele>151.54</ele>
        <time>2015-01-03T13:39:59Z</time>
      </trkpt>
      <trkpt lat="44.14141" lon="0.60903">
        <ele>150.1</ele>
        <time>2015-01-03T13:40:17Z</time>
      </trkpt>
      <trkpt lat="44.14145" lon="0.60924">
        <ele>151.06</ele>
        <time>2015-01-03T13:40:31Z</time>
      </trkpt>
      <trkpt lat="44.14151" lon="0.60931">
        <ele>151.06</ele>
        <time>2015-01-03T13:40:40Z</time>
      </trkpt>
      <trkpt lat="44.14161" lon="0.60941">
        <ele>151.06</ele>
        <time>2015-01-03T13:40:56Z</time>
      </trkpt>
      <trkpt lat="44.14162" lon="0.60941">
        <ele>150.58</ele>
        <time>2015-01-03T13:41:18Z</time>
      </trkpt>
    </trkseg>
  </trk>
</gpx>